Observation data for Lake Alan Henry on 09/16/2020      Previous  Date  Next       Current Mesonet Observations  Soil Data  Daily Summary Page  Observations in Plain Language
KAHS 160500Z 19004KT 21/14 A301 RMK A01 T02070140  RH  065%=      5-min Rain = 0
KAHS 160501Z 19004KT 21/14 A301 RMK A01 T02070140  RH  065%=      5-min Rain = 0
KAHS 160502Z 19004KT 21/14 A301 RMK A01 T02070139  RH  065%=      5-min Rain = 0
KAHS 160503Z 19004KT 21/14 A3009 RMK A01 T02080139  RH  065%=      5-min Rain = 0
KAHS 160504Z 19004KT 21/14 A3009 RMK A01 T02080139  RH  065%=      5-min Rain = 0
KAHS 160505Z 18004KT 21/14 A3009 RMK A01 T02080139  RH  065%=      5-min Rain = 0
KAHS 160506Z 19005KT 21/14 A3009 RMK A01 T02080139  RH  065%=      5-min Rain = 0
KAHS 160507Z 18004KT 21/14 A3009 RMK A01 T02080140  RH  065%=      5-min Rain = 0
KAHS 160508Z 18004KT 21/14 A3009 RMK A01 T02070139  RH  065%=      5-min Rain = 0
KAHS 160509Z 19005KT 21/14 A3009 RMK A01 T02070139  RH  065%=      5-min Rain = 0
KAHS 160510Z 18005KT 21/14 A3009 RMK A01 T02070139  RH  065%=      5-min Rain = 0
KAHS 160511Z 18005KT 21/14 A3009 RMK A01 T02060139  RH  065%=      5-min Rain = 0
KAHS 160512Z 18005KT 21/14 A3009 RMK A01 T02060139  RH  065%=      5-min Rain = 0
KAHS 160513Z 18004KT 21/14 A3009 RMK A01 T02060139  RH  065%=      5-min Rain = 0
KAHS 160514Z 18005KT 21/14 A3009 RMK A01 T02060139  RH  066%=      5-min Rain = 0
KAHS 160515Z 18005KT 21/14 A3009 RMK A01 T02060139  RH  065%=      5-min Rain = 0
KAHS 160516Z 19005KT 21/14 A3009 RMK A01 T02060139  RH  065%=      5-min Rain = 0
KAHS 160517Z 19004KT 21/14 A3009 RMK A01 T02060138  RH  065%=      5-min Rain = 0
KAHS 160518Z 19005KT 21/14 A3009 RMK A01 T02060138  RH  065%=      5-min Rain = 0
KAHS 160519Z 19004KT 21/14 A3009 RMK A01 T02060138  RH  065%=      5-min Rain = 0
KAHS 160520Z 18004KT 21/14 A3009 RMK A01 T02060137  RH  065%=      5-min Rain = 0
KAHS 160521Z 19004KT 21/14 A3009 RMK A01 T02060137  RH  065%=      5-min Rain = 0
KAHS 160522Z 18004KT 21/14 A3009 RMK A01 T02060137  RH  065%=      5-min Rain = 0
KAHS 160523Z 18004KT 21/14 A3009 RMK A01 T02060138  RH  065%=      5-min Rain = 0
KAHS 160524Z 19004KT 21/14 A3009 RMK A01 T02050138  RH  065%=      5-min Rain = 0
KAHS 160525Z 19004KT 21/14 A3009 RMK A01 T02050138  RH  065%=      5-min Rain = 0
KAHS 160526Z 18004KT 21/14 A3009 RMK A01 T02050139  RH  066%=      5-min Rain = 0
KAHS 160527Z 18004KT 21/14 A3009 RMK A01 T02050139  RH  066%=      5-min Rain = 0
KAHS 160528Z 18004KT 20/14 A3009 RMK A01 T02040139  RH  066%=      5-min Rain = 0
KAHS 160529Z 18003KT 21/14 A3009 RMK A01 T02050139  RH  066%=      5-min Rain = 0
KAHS 160530Z 18003KT 20/14 A3009 RMK A01 T02040139  RH  066%=      5-min Rain = 0
KAHS 160531Z 18002KT 20/14 A3009 RMK A01 T02040139  RH  066%=      5-min Rain = 0
KAHS 160532Z 18002KT 20/14 A301 RMK A01 T02030139  RH  066%=      5-min Rain = 0
KAHS 160533Z 18001KT 20/14 A301 RMK A01 T02030139  RH  067%=      5-min Rain = 0
KAHS 160534Z 19002KT 20/14 A301 RMK A01 T02020139  RH  067%=      5-min Rain = 0
KAHS 160535Z 19002KT 20/14 A301 RMK A01 T02010139  RH  067%=      5-min Rain = 0
KAHS 160536Z 18002KT 20/14 A301 RMK A01 T02000139  RH  068%=      5-min Rain = 0
KAHS 160537Z 18002KT 20/14 A301 RMK A01 T02000139  RH  068%=      5-min Rain = 0
KAHS 160538Z 18003KT 20/14 A301 RMK A01 T01990139  RH  068%=      5-min Rain = 0
KAHS 160539Z 17003KT 20/14 A301 RMK A01 T01990139  RH  068%=      5-min Rain = 0
KAHS 160540Z 17003KT 20/14 A301 RMK A01 T01980139  RH  069%=      5-min Rain = 0
KAHS 160541Z 18003KT 20/14 A301 RMK A01 T01980140  RH  069%=      5-min Rain = 0
KAHS 160542Z 18003KT 20/14 A301 RMK A01 T01970140  RH  069%=      5-min Rain = 0
KAHS 160543Z 18004KT 20/14 A301 RMK A01 T01970140  RH  069%=      5-min Rain = 0
KAHS 160544Z 18003KT 20/14 A301 RMK A01 T01960139  RH  070%=      5-min Rain = 0
KAHS 160545Z 19003KT 20/14 A301 RMK A01 T01950139  RH  070%=      5-min Rain = 0
KAHS 160546Z 18004KT 19/14 A301 RMK A01 T01940139  RH  071%=      5-min Rain = 0
KAHS 160547Z 18004KT 19/14 A301 RMK A01 T01930139  RH  071%=      5-min Rain = 0
KAHS 160548Z 18004KT 19/14 A301 RMK A01 T01930140  RH  072%=      5-min Rain = 0
KAHS 160549Z 18004KT 19/14 A301 RMK A01 T01930141  RH  072%=      5-min Rain = 0
KAHS 160550Z 18004KT 19/14 A301 RMK A01 T01940142  RH  072%=      5-min Rain = 0
KAHS 160551Z 18004KT 20/14 A301 RMK A01 T01950142  RH  071%=      5-min Rain = 0
KAHS 160552Z 18004KT 20/14 A301 RMK A01 T01960142  RH  071%=      5-min Rain = 0
KAHS 160553Z 17003KT 20/14 A301 RMK A01 T01970142  RH  070%=      5-min Rain = 0
KAHS 160554Z 17004KT 20/14 A301 RMK A01 T01970142  RH  070%=      5-min Rain = 0
KAHS 160555Z 18003KT 20/14 A3009 RMK A01 T01970142  RH  070%=      5-min Rain = 0
KAHS 160556Z 18003KT 20/14 A3009 RMK A01 T01980142  RH  070%=      5-min Rain = 0
KAHS 160557Z 18003KT 20/14 A3009 RMK A01 T01970141  RH  070%=      5-min Rain = 0
KAHS 160558Z 18003KT 20/14 A3009 RMK A01 T01970141  RH  070%=      5-min Rain = 0
KAHS 160559Z 18003KT 20/14 A3009 RMK A01 T01960141  RH  070%=      5-min Rain = 0
KAHS 160600Z 18003KT 20/14 A3009 RMK A01 T01960141  RH  070%=      5-min Rain = 0
KAHS 160601Z 18003KT 20/14 A3009 RMK A01 T01960141  RH  070%=      5-min Rain = 0
KAHS 160602Z 17003KT 20/14 A3009 RMK A01 T01950141  RH  071%=      5-min Rain = 0
KAHS 160603Z 17003KT 20/14 A3009 RMK A01 T01950141  RH  071%=      5-min Rain = 0
KAHS 160604Z 17003KT 20/14 A3009 RMK A01 T01950141  RH  071%=      5-min Rain = 0
KAHS 160605Z 17003KT 19/14 A3009 RMK A01 T01940140  RH  071%=      5-min Rain = 0
KAHS 160606Z 18002KT 19/14 A3009 RMK A01 T01940140  RH  071%=      5-min Rain = 0
KAHS 160607Z 18002KT 19/14 A3009 RMK A01 T01930140  RH  071%=      5-min Rain = 0
KAHS 160608Z 18002KT 19/14 A3009 RMK A01 T01930140  RH  071%=      5-min Rain = 0
KAHS 160609Z 18002KT 19/14 A3009 RMK A01 T01930140  RH  071%=      5-min Rain = 0
KAHS 160610Z 18002KT 19/14 A3009 RMK A01 T01930140  RH  071%=      5-min Rain = 0
KAHS 160611Z 19002KT 19/14 A3009 RMK A01 T01930140  RH  071%=      5-min Rain = 0
KAHS 160612Z 19002KT 19/14 A3009 RMK A01 T01930140  RH  071%=      5-min Rain = 0
KAHS 160613Z 19002KT 19/14 A3009 RMK A01 T01920140  RH  071%=      5-min Rain = 0
KAHS 160614Z 20002KT 19/14 A3009 RMK A01 T01920140  RH  071%=      5-min Rain = 0
KAHS 160615Z 20002KT 19/14 A3009 RMK A01 T01920140  RH  072%=      5-min Rain = 0
KAHS 160616Z 19002KT 19/14 A3009 RMK A01 T01920139  RH  072%=      5-min Rain = 0
KAHS 160617Z 19002KT 19/14 A3009 RMK A01 T01910139  RH  072%=      5-min Rain = 0
KAHS 160618Z 19002KT 19/14 A3009 RMK A01 T01910139  RH  072%=      5-min Rain = 0
KAHS 160619Z 19002KT 19/14 A3009 RMK A01 T01900139  RH  072%=      5-min Rain = 0
KAHS 160620Z 19002KT 19/14 A3009 RMK A01 T01900139  RH  072%=      5-min Rain = 0
KAHS 160621Z 19002KT 19/14 A3009 RMK A01 T01900139  RH  072%=      5-min Rain = 0
KAHS 160622Z 19002KT 19/14 A3009 RMK A01 T01900139  RH  072%=      5-min Rain = 0
KAHS 160623Z 19002KT 19/14 A3009 RMK A01 T01890139  RH  072%=      5-min Rain = 0
KAHS 160624Z 19002KT 19/14 A3009 RMK A01 T01890138  RH  073%=      5-min Rain = 0
KAHS 160625Z 19002KT 19/14 A3009 RMK A01 T01880138  RH  073%=      5-min Rain = 0
KAHS 160626Z 19002KT 19/14 A3009 RMK A01 T01870138  RH  073%=      5-min Rain = 0
KAHS 160627Z 19002KT 19/14 A3009 RMK A01 T01860138  RH  074%=      5-min Rain = 0
KAHS 160628Z 19002KT 19/14 A3009 RMK A01 T01860138  RH  074%=      5-min Rain = 0
KAHS 160629Z 20002KT 19/14 A3009 RMK A01 T01860138  RH  074%=      5-min Rain = 0
KAHS 160630Z 20002KT 19/14 A3009 RMK A01 T01860138  RH  074%=      5-min Rain = 0
KAHS 160631Z 20002KT 19/14 A3009 RMK A01 T01860138  RH  074%=      5-min Rain = 0
KAHS 160632Z 20002KT 19/14 A3009 RMK A01 T01850138  RH  074%=      5-min Rain = 0
KAHS 160633Z 21001KT 19/14 A3009 RMK A01 T01850138  RH  074%=      5-min Rain = 0
KAHS 160634Z 21002KT 19/14 A3009 RMK A01 T01850138  RH  074%=      5-min Rain = 0
KAHS 160635Z 22002KT 18/14 A3009 RMK A01 T01840138  RH  074%=      5-min Rain = 0
KAHS 160636Z 21001KT 18/14 A3009 RMK A01 T01840138  RH  075%=      5-min Rain = 0
KAHS 160637Z 21001KT 18/14 A3009 RMK A01 T01830139  RH  075%=      5-min Rain = 0
KAHS 160638Z 19002KT 18/14 A3009 RMK A01 T01840139  RH  075%=      5-min Rain = 0
KAHS 160639Z 21002KT 18/14 A3009 RMK A01 T01840140  RH  075%=      5-min Rain = 0
KAHS 160640Z 21002KT 18/14 A3009 RMK A01 T01840139  RH  075%=      5-min Rain = 0
KAHS 160641Z 21002KT 18/14 A3009 RMK A01 T01840140  RH  075%=      5-min Rain = 0
KAHS 160642Z 21002KT 18/14 A3009 RMK A01 T01840140  RH  075%=      5-min Rain = 0
KAHS 160643Z 20002KT 18/14 A3009 RMK A01 T01840140  RH  075%=      5-min Rain = 0
KAHS 160644Z 20002KT 18/14 A3009 RMK A01 T01840140  RH  075%=      5-min Rain = 0
KAHS 160645Z 18002KT 18/14 A3009 RMK A01 T01840140  RH  075%=      5-min Rain = 0
KAHS 160646Z 19002KT 18/14 A3009 RMK A01 T01840140  RH  076%=      5-min Rain = 0
KAHS 160647Z 17001KT 18/14 A3009 RMK A01 T01840142  RH  076%=      5-min Rain = 0
KAHS 160648Z 17001KT 19/14 A3009 RMK A01 T01850143  RH  077%=      5-min Rain = 0
KAHS 160649Z 16001KT 19/14 A3009 RMK A01 T01850143  RH  077%=      5-min Rain = 0
KAHS 160650Z 16001KT 18/14 A3009 RMK A01 T01840142  RH  076%=      5-min Rain = 0
KAHS 160651Z 16001KT 18/14 A3009 RMK A01 T01840142  RH  076%=      5-min Rain = 0
KAHS 160652Z 17001KT 19/14 A3009 RMK A01 T01850143  RH  076%=      5-min Rain = 0
KAHS 160653Z 19001KT 19/14 A3009 RMK A01 T01860143  RH  076%=      5-min Rain = 0
KAHS 160654Z 18001KT 19/14 A3009 RMK A01 T01860144  RH  076%=      5-min Rain = 0
KAHS 160655Z 17001KT 19/14 A3009 RMK A01 T01870144  RH  076%=      5-min Rain = 0
KAHS 160656Z 18001KT 19/15 A3009 RMK A01 T01880145  RH  076%=      5-min Rain = 0
KAHS 160657Z 19001KT 19/15 A3009 RMK A01 T01890145  RH  076%=      5-min Rain = 0
KAHS 160658Z 19001KT 19/14 A3009 RMK A01 T01880144  RH  075%=      5-min Rain = 0
KAHS 160659Z 20002KT 19/14 A3009 RMK A01 T01880144  RH  075%=      5-min Rain = 0
KAHS 160700Z 20002KT 19/14 A3009 RMK A01 T01880144  RH  076%=      5-min Rain = 0
KAHS 160701Z 19002KT 19/14 A3009 RMK A01 T01870144  RH  076%=      5-min Rain = 0
KAHS 160702Z 19002KT 19/15 A3009 RMK A01 T01870145  RH  076%=      5-min Rain = 0
KAHS 160703Z 19003KT 19/15 A3009 RMK A01 T01880145  RH  076%=      5-min Rain = 0
KAHS 160704Z 19003KT 19/15 A3009 RMK A01 T01880146  RH  076%=      5-min Rain = 0
KAHS 160705Z 18003KT 19/15 A3009 RMK A01 T01880146  RH  076%=      5-min Rain = 0
KAHS 160706Z 17003KT 19/15 A3009 RMK A01 T01890148  RH  077%=      5-min Rain = 0
KAHS 160707Z 18003KT 19/15 A3009 RMK A01 T01900148  RH  077%=      5-min Rain = 0
KAHS 160708Z 19003KT 19/15 A3009 RMK A01 T01900147  RH  076%=      5-min Rain = 0
KAHS 160709Z 20004KT 19/15 A3009 RMK A01 T01910148  RH  076%=      5-min Rain = 0
KAHS 160710Z 19004KT 19/15 A3009 RMK A01 T01910148  RH  076%=      5-min Rain = 0
KAHS 160711Z 19004KT 19/15 A3009 RMK A01 T01910148  RH  076%=      5-min Rain = 0
KAHS 160712Z 19003KT 19/15 A3009 RMK A01 T01910148  RH  076%=      5-min Rain = 0
KAHS 160713Z 19004KT 19/15 A3009 RMK A01 T01900148  RH  076%=      5-min Rain = 0
KAHS 160714Z 20003KT 19/15 A3009 RMK A01 T01900147  RH  076%=      5-min Rain = 0
KAHS 160715Z 20003KT 19/15 A3009 RMK A01 T01890147  RH  077%=      5-min Rain = 0
KAHS 160716Z 20003KT 19/15 A3009 RMK A01 T01890148  RH  077%=      5-min Rain = 0
KAHS 160717Z 20003KT 19/15 A3009 RMK A01 T01890148  RH  077%=      5-min Rain = 0
KAHS 160718Z 19003KT 19/15 A3009 RMK A01 T01890149  RH  078%=      5-min Rain = 0
KAHS 160719Z 19004KT 19/15 A3009 RMK A01 T01890149  RH  078%=      5-min Rain = 0
KAHS 160720Z 19004KT 19/15 A3009 RMK A01 T01890150  RH  078%=      5-min Rain = 0
KAHS 160721Z 19004KT 19/15 A3009 RMK A01 T01890150  RH  078%=      5-min Rain = 0
KAHS 160722Z 18005KT 19/15 A3009 RMK A01 T01890150  RH  078%=      5-min Rain = 0
KAHS 160723Z 18005KT 19/15 A3009 RMK A01 T01890150  RH  078%=      5-min Rain = 0
KAHS 160724Z 18004KT 19/15 A3009 RMK A01 T01890150  RH  078%=      5-min Rain = 0
KAHS 160725Z 18004KT 19/15 A3009 RMK A01 T01880149  RH  078%=      5-min Rain = 0
KAHS 160726Z 18004KT 19/15 A3009 RMK A01 T01880150  RH  078%=      5-min Rain = 0
KAHS 160727Z 18004KT 19/15 A3009 RMK A01 T01880150  RH  078%=      5-min Rain = 0
KAHS 160728Z 18005KT 19/15 A3009 RMK A01 T01880150  RH  078%=      5-min Rain = 0
KAHS 160729Z 18005KT 19/15 A3009 RMK A01 T01880150  RH  078%=      5-min Rain = 0
KAHS 160730Z 18004KT 19/15 A3009 RMK A01 T01880150  RH  078%=      5-min Rain = 0
KAHS 160731Z 18004KT 19/15 A3009 RMK A01 T01880151  RH  079%=      5-min Rain = 0
KAHS 160732Z 19003KT 19/15 A3009 RMK A01 T01880150  RH  079%=      5-min Rain = 0
KAHS 160733Z 19003KT 19/15 A3009 RMK A01 T01880150  RH  079%=      5-min Rain = 0
KAHS 160734Z 18003KT 19/15 A3009 RMK A01 T01880151  RH  079%=      5-min Rain = 0
KAHS 160735Z 18003KT 19/15 A3009 RMK A01 T01880151  RH  079%=      5-min Rain = 0
KAHS 160736Z 19003KT 19/15 A3009 RMK A01 T01880152  RH  079%=      5-min Rain = 0
KAHS 160737Z 19004KT 19/15 A3009 RMK A01 T01880152  RH  079%=      5-min Rain = 0
KAHS 160738Z 19003KT 19/15 A3009 RMK A01 T01880152  RH  079%=      5-min Rain = 0
KAHS 160739Z 19004KT 19/15 A3009 RMK A01 T01890152  RH  079%=      5-min Rain = 0
KAHS 160740Z 18004KT 19/15 A3009 RMK A01 T01890153  RH  079%=      5-min Rain = 0
KAHS 160741Z 18004KT 19/15 A3009 RMK A01 T01890153  RH  079%=      5-min Rain = 0
KAHS 160742Z 18004KT 19/15 A3009 RMK A01 T01890153  RH  079%=      5-min Rain = 0
KAHS 160743Z 18004KT 19/15 A3009 RMK A01 T01890153  RH  079%=      5-min Rain = 0
KAHS 160744Z 18004KT 19/15 A3009 RMK A01 T01890153  RH  079%=      5-min Rain = 0
KAHS 160745Z 18004KT 19/15 A3009 RMK A01 T01890153  RH  079%=      5-min Rain = 0
KAHS 160746Z 18004KT 19/15 A3009 RMK A01 T01890152  RH  079%=      5-min Rain = 0
KAHS 160747Z 17004KT 19/15 A3009 RMK A01 T01890152  RH  079%=      5-min Rain = 0
KAHS 160748Z 17004KT 19/15 A3009 RMK A01 T01880152  RH  079%=      5-min Rain = 0
KAHS 160749Z 17004KT 19/15 A3009 RMK A01 T01880152  RH  080%=      5-min Rain = 0
KAHS 160750Z 17004KT 19/15 A3009 RMK A01 T01890153  RH  080%=      5-min Rain = 0
KAHS 160751Z 17004KT 19/15 A3009 RMK A01 T01890153  RH  080%=      5-min Rain = 0
KAHS 160752Z 16004KT 19/15 A3009 RMK A01 T01890153  RH  080%=      5-min Rain = 0
KAHS 160753Z 17004KT 19/15 A3009 RMK A01 T01890153  RH  080%=      5-min Rain = 0
KAHS 160754Z 17004KT 19/15 A3009 RMK A01 T01890153  RH  080%=      5-min Rain = 0
KAHS 160755Z 17003KT 19/15 A3009 RMK A01 T01880153  RH  080%=      5-min Rain = 0
KAHS 160756Z 23001KT 19/15 A3009 RMK A01 T01870151  RH  080%=      5-min Rain = 0
KAHS 160757Z 23001KT 19/15 A3009 RMK A01 T01850150  RH  080%=      5-min Rain = 0
KAHS 160758Z 19002KT 18/15 A3009 RMK A01 T01840151  RH  081%=      5-min Rain = 0
KAHS 160759Z 18003KT 18/15 A3009 RMK A01 T01840152  RH  081%=      5-min Rain = 0
KAHS 160800Z 17003KT 19/15 A3009 RMK A01 T01850153  RH  082%=      5-min Rain = 0
KAHS 160801Z 17003KT 19/15 A3009 RMK A01 T01850153  RH  081%=      5-min Rain = 0
KAHS 160802Z 16003KT 19/15 A3009 RMK A01 T01860153  RH  081%=      5-min Rain = 0
KAHS 160803Z 16003KT 19/15 A3009 RMK A01 T01860153  RH  081%=      5-min Rain = 0
KAHS 160804Z 17003KT 19/15 A3009 RMK A01 T01860153  RH  081%=      5-min Rain = 0
KAHS 160805Z 17002KT 19/15 A3009 RMK A01 T01860153  RH  081%=      5-min Rain = 0
KAHS 160806Z 17002KT 19/15 A3009 RMK A01 T01850151  RH  081%=      5-min Rain = 0
KAHS 160807Z 17001KT 18/15 A3009 RMK A01 T01830150  RH  081%=      5-min Rain = 0
KAHS 160808Z 19001KT 18/15 A3009 RMK A01 T01830151  RH  082%=      5-min Rain = 0
KAHS 160809Z 20001KT 18/15 A3009 RMK A01 T01820152  RH  082%=      5-min Rain = 0
KAHS 160810Z 19001KT 18/15 A3009 RMK A01 T01820152  RH  082%=      5-min Rain = 0
KAHS 160811Z 19001KT 18/15 A3009 RMK A01 T01830153  RH  083%=      5-min Rain = 0
KAHS 160812Z 18001KT 18/15 A3009 RMK A01 T01830153  RH  083%=      5-min Rain = 0
KAHS 160813Z 18001KT 18/15 A3009 RMK A01 T01830153  RH  082%=      5-min Rain = 0
KAHS 160814Z 18001KT 18/15 A3009 RMK A01 T01830153  RH  082%=      5-min Rain = 0
KAHS 160815Z 18001KT 18/15 A3009 RMK A01 T01830153  RH  082%=      5-min Rain = 0
KAHS 160816Z 18001KT 18/15 A3009 RMK A01 T01830153  RH  083%=      5-min Rain = 0
KAHS 160817Z 19002KT 18/15 A3009 RMK A01 T01830153  RH  083%=      5-min Rain = 0
KAHS 160818Z 20002KT 18/15 A3009 RMK A01 T01830153  RH  083%=      5-min Rain = 0
KAHS 160819Z 21002KT 18/15 A3009 RMK A01 T01830153  RH  083%=      5-min Rain = 0
KAHS 160820Z 21002KT 18/15 A3009 RMK A01 T01830153  RH  082%=      5-min Rain = 0
KAHS 160821Z 22002KT 18/15 A3009 RMK A01 T01830153  RH  082%=      5-min Rain = 0
KAHS 160822Z 23002KT 18/15 A3009 RMK A01 T01820151  RH  082%=      5-min Rain = 0
KAHS 160823Z 22002KT 18/15 A3009 RMK A01 T01810151  RH  083%=      5-min Rain = 0
KAHS 160824Z 21002KT 18/15 A3009 RMK A01 T01800152  RH  083%=      5-min Rain = 0
KAHS 160825Z 21002KT 18/15 A3009 RMK A01 T01800152  RH  083%=      5-min Rain = 0
KAHS 160826Z 21002KT 18/15 A3009 RMK A01 T01810152  RH  083%=      5-min Rain = 0
KAHS 160827Z 21003KT 18/15 A3009 RMK A01 T01820152  RH  083%=      5-min Rain = 0
KAHS 160828Z 21003KT 18/15 A3009 RMK A01 T01820152  RH  083%=      5-min Rain = 0
KAHS 160829Z 21002KT 18/15 A3009 RMK A01 T01820151  RH  082%=      5-min Rain = 0
KAHS 160830Z 21002KT 18/15 A3009 RMK A01 T01830151  RH  082%=      5-min Rain = 0
KAHS 160831Z 21002KT 18/15 A3009 RMK A01 T01830151  RH  082%=      5-min Rain = 0
KAHS 160832Z 21002KT 18/15 A3009 RMK A01 T01840151  RH  081%=      5-min Rain = 0
KAHS 160833Z 21002KT 18/15 A3009 RMK A01 T01840151  RH  081%=      5-min Rain = 0
KAHS 160834Z 20002KT 18/15 A3009 RMK A01 T01840151  RH  081%=      5-min Rain = 0
KAHS 160835Z 19002KT 18/15 A3009 RMK A01 T01840150  RH  081%=      5-min Rain = 0
KAHS 160836Z 19003KT 18/15 A3009 RMK A01 T01840150  RH  081%=      5-min Rain = 0
KAHS 160837Z 19003KT 18/15 A3008 RMK A01 T01840151  RH  081%=      5-min Rain = 0
KAHS 160838Z 19003KT 18/15 A3008 RMK A01 T01840151  RH  081%=      5-min Rain = 0
KAHS 160839Z 19002KT 18/15 A3008 RMK A01 T01840150  RH  081%=      5-min Rain = 0
KAHS 160840Z 19003KT 18/15 A3008 RMK A01 T01840150  RH  081%=      5-min Rain = 0
KAHS 160841Z 18003KT 18/15 A3008 RMK A01 T01840150  RH  081%=      5-min Rain = 0
KAHS 160842Z 18003KT 18/15 A3008 RMK A01 T01840150  RH  081%=      5-min Rain = 0
KAHS 160843Z 17003KT 18/15 A3008 RMK A01 T01840150  RH  081%=      5-min Rain = 0
KAHS 160844Z 17003KT 18/15 A3008 RMK A01 T01840150  RH  080%=      5-min Rain = 0
KAHS 160845Z 17004KT 18/15 A3008 RMK A01 T01840150  RH  080%=      5-min Rain = 0
KAHS 160846Z 17004KT 18/15 A3008 RMK A01 T01840150  RH  080%=      5-min Rain = 0
KAHS 160847Z 17004KT 18/15 A3008 RMK A01 T01840150  RH  081%=      5-min Rain = 0
KAHS 160848Z 17004KT 18/15 A3008 RMK A01 T01830150  RH  081%=      5-min Rain = 0
KAHS 160849Z 17005KT 18/15 A3008 RMK A01 T01830150  RH  081%=      5-min Rain = 0
KAHS 160850Z 17005KT 18/15 A3008 RMK A01 T01840150  RH  081%=      5-min Rain = 0
KAHS 160851Z 17004KT 18/15 A3008 RMK A01 T01840150  RH  081%=      5-min Rain = 0
KAHS 160852Z 16004KT 18/15 A3008 RMK A01 T01840150  RH  081%=      5-min Rain = 0
KAHS 160853Z 16003KT 18/15 A3008 RMK A01 T01840150  RH  081%=      5-min Rain = 0
KAHS 160854Z 15003KT 18/15 A3008 RMK A01 T01830150  RH  081%=      5-min Rain = 0
KAHS 160855Z 15003KT 18/15 A3008 RMK A01 T01820150  RH  081%=      5-min Rain = 0
KAHS 160856Z 15003KT 18/15 A3008 RMK A01 T01820150  RH  082%=      5-min Rain = 0
KAHS 160857Z 14003KT 18/15 A3008 RMK A01 T01810150  RH  082%=      5-min Rain = 0
KAHS 160858Z 13002KT 18/15 A3008 RMK A01 T01810150  RH  082%=      5-min Rain = 0
KAHS 160859Z 13002KT 18/15 A3008 RMK A01 T01810151  RH  082%=      5-min Rain = 0
KAHS 160900Z 12002KT 18/15 A3008 RMK A01 T01800150  RH  083%=      5-min Rain = 0
KAHS 160901Z 12002KT 18/15 A3008 RMK A01 T01790149  RH  083%=      5-min Rain = 0
KAHS 160902Z 13002KT 18/15 A3008 RMK A01 T01790149  RH  083%=      5-min Rain = 0
KAHS 160903Z 13002KT 18/15 A3008 RMK A01 T01780149  RH  083%=      5-min Rain = 0
KAHS 160904Z 14002KT 18/15 A3008 RMK A01 T01770148  RH  083%=      5-min Rain = 0
KAHS 160905Z 14002KT 18/15 A3008 RMK A01 T01760148  RH  084%=      5-min Rain = 0
KAHS 160906Z 15002KT 18/15 A3008 RMK A01 T01750148  RH  084%=      5-min Rain = 0
KAHS 160907Z 15002KT 18/15 A3008 RMK A01 T01750148  RH  084%=      5-min Rain = 0
KAHS 160908Z 16001KT 17/15 A3008 RMK A01 T01740147  RH  084%=      5-min Rain = 0
KAHS 160909Z 16001KT 17/15 A3008 RMK A01 T01730146  RH  084%=      5-min Rain = 0
KAHS 160910Z 17001KT 17/15 A3008 RMK A01 T01720147  RH  085%=      5-min Rain = 0
KAHS 160911Z 18001KT 17/15 A3008 RMK A01 T01710146  RH  085%=      5-min Rain = 0
KAHS 160912Z 19002KT 17/15 A3008 RMK A01 T01700146  RH  086%=      5-min Rain = 0
KAHS 160913Z 18002KT 17/15 A3008 RMK A01 T01700146  RH  086%=      5-min Rain = 0
KAHS 160914Z 18002KT 17/15 A3008 RMK A01 T01700148  RH  087%=      5-min Rain = 0
KAHS 160915Z 19002KT 17/15 A3008 RMK A01 T01710150  RH  087%=      5-min Rain = 0
KAHS 160916Z 19002KT 17/15 A3008 RMK A01 T01720150  RH  087%=      5-min Rain = 0
KAHS 160917Z 18002KT 17/15 A3008 RMK A01 T01730151  RH  087%=      5-min Rain = 0
KAHS 160918Z 18002KT 17/15 A3007 RMK A01 T01730150  RH  086%=      5-min Rain = 0
KAHS 160919Z 18002KT 17/15 A3007 RMK A01 T01740151  RH  086%=      5-min Rain = 0
KAHS 160920Z 18002KT 17/15 A3007 RMK A01 T01740151  RH  086%=      5-min Rain = 0
KAHS 160921Z 18002KT 18/15 A3007 RMK A01 T01750151  RH  086%=      5-min Rain = 0
KAHS 160922Z 18002KT 18/15 A3007 RMK A01 T01750151  RH  086%=      5-min Rain = 0
KAHS 160923Z 18002KT 18/15 A3007 RMK A01 T01760152  RH  086%=      5-min Rain = 0
KAHS 160924Z 18002KT 18/15 A3007 RMK A01 T01760152  RH  086%=      5-min Rain = 0
KAHS 160925Z 18002KT 18/15 A3007 RMK A01 T01760152  RH  086%=      5-min Rain = 0
KAHS 160926Z 18001KT 18/15 A3007 RMK A01 T01760152  RH  086%=      5-min Rain = 0
KAHS 160927Z 18001KT 18/15 A3007 RMK A01 T01760151  RH  085%=      5-min Rain = 0
KAHS 160928Z 18001KT 18/15 A3007 RMK A01 T01760151  RH  085%=      5-min Rain = 0
KAHS 160929Z 18001KT 18/15 A3007 RMK A01 T01760151  RH  085%=      5-min Rain = 0
KAHS 160930Z 18001KT 18/15 A3007 RMK A01 T01760151  RH  085%=      5-min Rain = 0
KAHS 160931Z 19001KT 18/15 A3007 RMK A01 T01750150  RH  085%=      5-min Rain = 0
KAHS 160932Z 20001KT 17/15 A3007 RMK A01 T01740149  RH  085%=      5-min Rain = 0
KAHS 160933Z 20001KT 17/15 A3007 RMK A01 T01720147  RH  085%=      5-min Rain = 0
KAHS 160934Z 21001KT 17/15 A3007 RMK A01 T01720148  RH  086%=      5-min Rain = 0
KAHS 160935Z 21001KT 17/15 A3007 RMK A01 T01720149  RH  087%=      5-min Rain = 0
KAHS 160936Z 21001KT 17/15 A3007 RMK A01 T01710148  RH  086%=      5-min Rain = 0
KAHS 160937Z 22002KT 17/15 A3007 RMK A01 T01690146  RH  086%=      5-min Rain = 0
KAHS 160938Z 24002KT 17/14 A3007 RMK A01 T01670144  RH  086%=      5-min Rain = 0
KAHS 160939Z 25002KT 17/14 A3007 RMK A01 T01650144  RH  087%=      5-min Rain = 0
KAHS 160940Z 25003KT 17/15 A3007 RMK A01 T01650146  RH  088%=      5-min Rain = 0
KAHS 160941Z 24003KT 17/15 A3007 RMK A01 T01660148  RH  089%=      5-min Rain = 0
KAHS 160942Z 23003KT 17/15 A3007 RMK A01 T01680151  RH  089%=      5-min Rain = 0
KAHS 160943Z 22003KT 17/15 A3007 RMK A01 T01700152  RH  089%=      5-min Rain = 0
KAHS 160944Z 22003KT 17/15 A3007 RMK A01 T01710152  RH  089%=      5-min Rain = 0
KAHS 160945Z 23002KT 17/15 A3007 RMK A01 T01710150  RH  088%=      5-min Rain = 0
KAHS 160946Z 23003KT 17/15 A3007 RMK A01 T01700149  RH  088%=      5-min Rain = 0
KAHS 160947Z 23003KT 17/15 A3007 RMK A01 T01700150  RH  088%=      5-min Rain = 0
KAHS 160948Z 23003KT 17/15 A3007 RMK A01 T01710151  RH  088%=      5-min Rain = 0
KAHS 160949Z 23003KT 17/15 A3007 RMK A01 T01720151  RH  087%=      5-min Rain = 0
KAHS 160950Z 24002KT 17/15 A3007 RMK A01 T01710149  RH  087%=      5-min Rain = 0
KAHS 160951Z 24002KT 17/15 A3007 RMK A01 T01710149  RH  087%=      5-min Rain = 0
KAHS 160952Z 25002KT 17/15 A3007 RMK A01 T01720150  RH  087%=      5-min Rain = 0
KAHS 160953Z 26002KT 17/15 A3007 RMK A01 T01720150  RH  087%=      5-min Rain = 0
KAHS 160954Z 27002KT 17/15 A3007 RMK A01 T01730150  RH  086%=      5-min Rain = 0
KAHS 160955Z 27002KT 17/15 A3007 RMK A01 T01740150  RH  086%=      5-min Rain = 0
KAHS 160956Z 27002KT 17/15 A3007 RMK A01 T01740150  RH  086%=      5-min Rain = 0
KAHS 160957Z 26002KT 18/15 A3007 RMK A01 T01750150  RH  086%=      5-min Rain = 0
KAHS 160958Z 26003KT 18/15 A3007 RMK A01 T01750151  RH  086%=      5-min Rain = 0
KAHS 160959Z 26002KT 18/15 A3007 RMK A01 T01760151  RH  085%=      5-min Rain = 0
KAHS 161000Z 26002KT 18/15 A3007 RMK A01 T01770151  RH  085%=      5-min Rain = 0
KAHS 161001Z 26003KT 18/15 A3007 RMK A01 T01770151  RH  084%=      5-min Rain = 0
KAHS 161002Z 26003KT 18/15 A3007 RMK A01 T01770150  RH  084%=      5-min Rain = 0
KAHS 161003Z 26003KT 18/15 A3007 RMK A01 T01770150  RH  084%=      5-min Rain = 0
KAHS 161004Z 25002KT 18/15 A3007 RMK A01 T01770150  RH  084%=      5-min Rain = 0
KAHS 161005Z 25002KT 18/15 A3007 RMK A01 T01770150  RH  084%=      5-min Rain = 0
KAHS 161006Z 25002KT 18/15 A3007 RMK A01 T01780151  RH  084%=      5-min Rain = 0
KAHS 161007Z 25002KT 18/15 A3007 RMK A01 T01780151  RH  084%=      5-min Rain = 0
KAHS 161008Z 25002KT 18/15 A3007 RMK A01 T01790151  RH  084%=      5-min Rain = 0
KAHS 161009Z 26002KT 18/15 A3007 RMK A01 T01790151  RH  084%=      5-min Rain = 0
KAHS 161010Z 27003KT 18/15 A3007 RMK A01 T01790151  RH  084%=      5-min Rain = 0
KAHS 161011Z 28003KT 18/15 A3007 RMK A01 T01790150  RH  083%=      5-min Rain = 0
KAHS 161012Z 28003KT 18/15 A3007 RMK A01 T01790150  RH  083%=      5-min Rain = 0
KAHS 161013Z 28004KT 18/15 A3007 RMK A01 T01770149  RH  083%=      5-min Rain = 0
KAHS 161014Z 28004KT 18/15 A3007 RMK A01 T01760148  RH  084%=      5-min Rain = 0
KAHS 161015Z 28004KT 18/15 A3007 RMK A01 T01750147  RH  084%=      5-min Rain = 0
KAHS 161016Z 28004KT 17/15 A3007 RMK A01 T01740147  RH  084%=      5-min Rain = 0
KAHS 161017Z 28005KT 17/15 A3007 RMK A01 T01730146  RH  084%=      5-min Rain = 0
KAHS 161018Z 28004KT 17/15 A3007 RMK A01 T01720146  RH  085%=      5-min Rain = 0
KAHS 161019Z 28004KT 17/14 A3007 RMK A01 T01700144  RH  085%=      5-min Rain = 0
KAHS 161020Z 28005KT 17/14 A3007 RMK A01 T01690143  RH  085%=      5-min Rain = 0
KAHS 161021Z 28005KT 17/14 A3007 RMK A01 T01690144  RH  085%=      5-min Rain = 0
KAHS 161022Z 28005KT 17/14 A3007 RMK A01 T01690144  RH  085%=      5-min Rain = 0
KAHS 161023Z 29005KT 17/14 A3007 RMK A01 T01690144  RH  085%=      5-min Rain = 0
KAHS 161024Z 29005KT 17/14 A3007 RMK A01 T01690143  RH  085%=      5-min Rain = 0
KAHS 161025Z 30005KT 17/14 A3007 RMK A01 T01700144  RH  084%=      5-min Rain = 0
KAHS 161026Z 30005KT 17/14 A3007 RMK A01 T01700143  RH  084%=      5-min Rain = 0
KAHS 161027Z 30005KT 17/14 A3007 RMK A01 T01700143  RH  084%=      5-min Rain = 0
KAHS 161028Z 30004KT 17/14 A3007 RMK A01 T01700143  RH  084%=      5-min Rain = 0
KAHS 161029Z 29004KT 17/14 A3007 RMK A01 T01710142  RH  083%=      5-min Rain = 0
KAHS 161030Z 29004KT 17/14 A3007 RMK A01 T01710143  RH  083%=      5-min Rain = 0
KAHS 161031Z 29003KT 17/14 A3007 RMK A01 T01710143  RH  083%=      5-min Rain = 0
KAHS 161032Z 28003KT 17/14 A3007 RMK A01 T01720142  RH  083%=      5-min Rain = 0
KAHS 161033Z 28002KT 17/14 A3007 RMK A01 T01720142  RH  083%=      5-min Rain = 0
KAHS 161034Z 28002KT 17/14 A3007 RMK A01 T01720142  RH  083%=      5-min Rain = 0
KAHS 161035Z 28002KT 17/14 A3007 RMK A01 T01720142  RH  082%=      5-min Rain = 0
KAHS 161036Z 28003KT 17/14 A3007 RMK A01 T01720142  RH  082%=      5-min Rain = 0
KAHS 161037Z 28003KT 17/14 A3007 RMK A01 T01720142  RH  082%=      5-min Rain = 0
KAHS 161038Z 28003KT 17/14 A3007 RMK A01 T01730142  RH  082%=      5-min Rain = 0
KAHS 161039Z 28003KT 17/14 A3008 RMK A01 T01730142  RH  082%=      5-min Rain = 0
KAHS 161040Z 28004KT 17/14 A3008 RMK A01 T01730141  RH  081%=      5-min Rain = 0
KAHS 161041Z 28004KT 17/14 A3008 RMK A01 T01720141  RH  082%=      5-min Rain = 0
KAHS 161042Z 29004KT 17/14 A3008 RMK A01 T01720141  RH  082%=      5-min Rain = 0
KAHS 161043Z 28003KT 17/14 A3008 RMK A01 T01710141  RH  082%=      5-min Rain = 0
KAHS 161044Z 28003KT 17/14 A3008 RMK A01 T01710141  RH  082%=      5-min Rain = 0
KAHS 161045Z 27003KT 17/14 A3008 RMK A01 T01710141  RH  083%=      5-min Rain = 0
KAHS 161046Z 27003KT 17/14 A3007 RMK A01 T01710141  RH  083%=      5-min Rain = 0
KAHS 161047Z 27003KT 17/14 A3007 RMK A01 T01710142  RH  083%=      5-min Rain = 0
KAHS 161048Z 26003KT 17/14 A3007 RMK A01 T01720142  RH  082%=      5-min Rain = 0
KAHS 161049Z 27003KT 17/14 A3007 RMK A01 T01720142  RH  082%=      5-min Rain = 0
KAHS 161050Z 27003KT 17/14 A3007 RMK A01 T01720142  RH  082%=      5-min Rain = 0
KAHS 161051Z 27003KT 17/14 A3007 RMK A01 T01720141  RH  082%=      5-min Rain = 0
KAHS 161052Z 26003KT 17/14 A3008 RMK A01 T01720141  RH  082%=      5-min Rain = 0
KAHS 161053Z 27003KT 17/14 A3008 RMK A01 T01720141  RH  082%=      5-min Rain = 0
KAHS 161054Z 27003KT 17/14 A3008 RMK A01 T01710140  RH  082%=      5-min Rain = 0
KAHS 161055Z 27003KT 17/14 A3008 RMK A01 T01710140  RH  082%=      5-min Rain = 0
KAHS 161056Z 27003KT 17/14 A3008 RMK A01 T01700140  RH  083%=      5-min Rain = 0
KAHS 161057Z 28003KT 17/14 A3008 RMK A01 T01690140  RH  083%=      5-min Rain = 0
KAHS 161058Z 28003KT 17/14 A3008 RMK A01 T01680140  RH  083%=      5-min Rain = 0
KAHS 161059Z 28004KT 17/14 A3008 RMK A01 T01680140  RH  084%=      5-min Rain = 0
KAHS 161100Z 28003KT 17/14 A3008 RMK A01 T01670140  RH  084%=      5-min Rain = 0
KAHS 161101Z 28003KT 17/14 A3008 RMK A01 T01670140  RH  084%=      5-min Rain = 0
KAHS 161102Z 28003KT 17/14 A3008 RMK A01 T01670140  RH  084%=      5-min Rain = 0
KAHS 161103Z 28003KT 17/14 A3008 RMK A01 T01670140  RH  084%=      5-min Rain = 0
KAHS 161104Z 28002KT 17/14 A3008 RMK A01 T01660140  RH  084%=      5-min Rain = 0
KAHS 161105Z 28001KT 17/14 A3008 RMK A01 T01660140  RH  084%=      5-min Rain = 0
KAHS 161106Z 28001KT 17/14 A3008 RMK A01 T01650139  RH  084%=      5-min Rain = 0
KAHS 161107Z 28001KT 16/14 A3008 RMK A01 T01640138  RH  085%=      5-min Rain = 0
KAHS 161108Z 28001KT 16/14 A3008 RMK A01 T01640138  RH  085%=      5-min Rain = 0
KAHS 161109Z 28001KT 16/14 A3008 RMK A01 T01640139  RH  085%=      5-min Rain = 0
KAHS 161110Z 28001KT 16/14 A3008 RMK A01 T01630139  RH  085%=      5-min Rain = 0
KAHS 161111Z 28001KT 16/14 A3008 RMK A01 T01630139  RH  085%=      5-min Rain = 0
KAHS 161112Z 28001KT 16/14 A3008 RMK A01 T01630139  RH  086%=      5-min Rain = 0
KAHS 161113Z 28001KT 16/14 A3008 RMK A01 T01630139  RH  086%=      5-min Rain = 0
KAHS 161114Z 28001KT 16/14 A3008 RMK A01 T01630139  RH  086%=      5-min Rain = 0
KAHS 161115Z 28001KT 16/14 A3008 RMK A01 T01630139  RH  086%=      5-min Rain = 0
KAHS 161116Z 28000KT 16/14 A3008 RMK A01 T01630139  RH  086%=      5-min Rain = 0
KAHS 161117Z 00000KT 16/14 A3008 RMK A01 T01630139  RH  086%=      5-min Rain = 0
KAHS 161118Z 00000KT 16/14 A3008 RMK A01 T01630139  RH  086%=      5-min Rain = 0
KAHS 161119Z 28000KT 16/14 A3008 RMK A01 T01630139  RH  086%=      5-min Rain = 0
KAHS 161120Z 28001KT 16/14 A3008 RMK A01 T01630139  RH  086%=      5-min Rain = 0
KAHS 161121Z 28001KT 16/14 A3008 RMK A01 T01620139  RH  086%=      5-min Rain = 0
KAHS 161122Z 28002KT 16/14 A3008 RMK A01 T01620139  RH  086%=      5-min Rain = 0
KAHS 161123Z 28002KT 16/14 A3008 RMK A01 T01610138  RH  086%=      5-min Rain = 0
KAHS 161124Z 28002KT 16/14 A3008 RMK A01 T01600138  RH  086%=      5-min Rain = 0
KAHS 161125Z 28002KT 16/14 A3008 RMK A01 T01590137  RH  087%=      5-min Rain = 0
KAHS 161126Z 28002KT 16/14 A3008 RMK A01 T01590137  RH  087%=      5-min Rain = 0
KAHS 161127Z 28001KT 16/14 A3008 RMK A01 T01580137  RH  087%=      5-min Rain = 0
KAHS 161128Z 28000KT 16/14 A3008 RMK A01 T01570137  RH  087%=      5-min Rain = 0
KAHS 161129Z 00000KT 16/14 A3008 RMK A01 T01570136  RH  087%=      5-min Rain = 0
KAHS 161130Z 00000KT 16/14 A3008 RMK A01 T01560136  RH  088%=      5-min Rain = 0
KAHS 161131Z 28000KT 16/14 A3008 RMK A01 T01560136  RH  088%=      5-min Rain = 0
KAHS 161132Z 26001KT 16/14 A3008 RMK A01 T01560137  RH  088%=      5-min Rain = 0
KAHS 161133Z 25001KT 16/14 A3008 RMK A01 T01560137  RH  088%=      5-min Rain = 0
KAHS 161134Z 23001KT 16/14 A3008 RMK A01 T01560137  RH  089%=      5-min Rain = 0
KAHS 161135Z 21001KT 16/14 A3008 RMK A01 T01560138  RH  089%=      5-min Rain = 0
KAHS 161136Z 20002KT 16/14 A3008 RMK A01 T01570138  RH  089%=      5-min Rain = 0
KAHS 161137Z 20002KT 16/14 A3008 RMK A01 T01570139  RH  089%=      5-min Rain = 0
KAHS 161138Z 20002KT 16/14 A3008 RMK A01 T01570139  RH  089%=      5-min Rain = 0
KAHS 161139Z 20001KT 16/14 A3008 RMK A01 T01570139  RH  089%=      5-min Rain = 0
KAHS 161140Z 20001KT 16/14 A3008 RMK A01 T01570138  RH  089%=      5-min Rain = 0
KAHS 161141Z 19001KT 16/14 A3008 RMK A01 T01570138  RH  088%=      5-min Rain = 0
KAHS 161142Z 18001KT 16/14 A3008 RMK A01 T01570138  RH  088%=      5-min Rain = 0
KAHS 161143Z 17001KT 16/14 A3008 RMK A01 T01560137  RH  088%=      5-min Rain = 0
KAHS 161144Z 17001KT 16/14 A3008 RMK A01 T01560137  RH  089%=      5-min Rain = 0
KAHS 161145Z 17001KT 16/14 A3008 RMK A01 T01560138  RH  089%=      5-min Rain = 0
KAHS 161146Z 17001KT 16/14 A3008 RMK A01 T01560138  RH  089%=      5-min Rain = 0
KAHS 161147Z 17001KT 16/14 A3008 RMK A01 T01560138  RH  089%=      5-min Rain = 0
KAHS 161148Z 17001KT 16/14 A3008 RMK A01 T01560137  RH  089%=      5-min Rain = 0
KAHS 161149Z 16001KT 16/14 A3008 RMK A01 T01550137  RH  089%=      5-min Rain = 0
KAHS 161150Z 15001KT 16/14 A3008 RMK A01 T01550137  RH  089%=      5-min Rain = 0
KAHS 161151Z 15001KT 16/14 A3008 RMK A01 T01550137  RH  089%=      5-min Rain = 0
KAHS 161152Z 15001KT 16/14 A3008 RMK A01 T01550137  RH  089%=      5-min Rain = 0
KAHS 161153Z 15001KT 16/14 A3008 RMK A01 T01550137  RH  089%=      5-min Rain = 0
KAHS 161154Z 14002KT 15/14 A3008 RMK A01 T01540136  RH  089%=      5-min Rain = 0
KAHS 161155Z 13002KT 15/14 A3008 RMK A01 T01540136  RH  089%=      5-min Rain = 0
KAHS 161156Z 13002KT 15/14 A3008 RMK A01 T01540136  RH  089%=      5-min Rain = 0
KAHS 161157Z 13002KT 15/14 A3008 RMK A01 T01540137  RH  089%=      5-min Rain = 0
KAHS 161158Z 13002KT 15/14 A3008 RMK A01 T01540137  RH  090%=      5-min Rain = 0
KAHS 161159Z 13002KT 16/14 A3008 RMK A01 T01550138  RH  090%=      5-min Rain = 0
KAHS 161200Z 13002KT 16/14 A3008 RMK A01 T01550138  RH  090%=      5-min Rain = 0
KAHS 161201Z 13002KT 16/14 A3008 RMK A01 T01550139  RH  090%=      5-min Rain = 0
KAHS 161202Z 13002KT 16/14 A3008 RMK A01 T01560139  RH  090%=      5-min Rain = 0
KAHS 161203Z 13002KT 16/14 A3008 RMK A01 T01560139  RH  090%=      5-min Rain = 0
KAHS 161204Z 13002KT 16/14 A3008 RMK A01 T01560139  RH  090%=      5-min Rain = 0
KAHS 161205Z 13002KT 16/14 A3008 RMK A01 T01560139  RH  090%=      5-min Rain = 0
KAHS 161206Z 13002KT 16/14 A3008 RMK A01 T01570140  RH  090%=      5-min Rain = 0
KAHS 161207Z 13002KT 16/14 A3008 RMK A01 T01570140  RH  089%=      5-min Rain = 0
KAHS 161208Z 13002KT 16/14 A3008 RMK A01 T01570140  RH  089%=      5-min Rain = 0
KAHS 161209Z 13002KT 16/14 A3008 RMK A01 T01570139  RH  089%=      5-min Rain = 0
KAHS 161210Z 13002KT 16/14 A3008 RMK A01 T01570139  RH  089%=      5-min Rain = 0
KAHS 161211Z 13001KT 16/14 A3008 RMK A01 T01560138  RH  089%=      5-min Rain = 0
KAHS 161212Z 13001KT 15/13 A3008 RMK A01 T01530134  RH  088%=      5-min Rain = 0
KAHS 161213Z 12001KT 15/13 A3008 RMK A01 T01520133  RH  088%=      5-min Rain = 0
KAHS 161214Z 12001KT 15/14 A3008 RMK A01 T01520136  RH  090%=      5-min Rain = 0
KAHS 161215Z 12001KT 15/14 A3008 RMK A01 T01530138  RH  090%=      5-min Rain = 0
KAHS 161216Z 12001KT 15/14 A3008 RMK A01 T01530138  RH  090%=      5-min Rain = 0
KAHS 161217Z 11001KT 15/14 A3008 RMK A01 T01540139  RH  091%=      5-min Rain = 0
KAHS 161218Z 09001KT 16/14 A3008 RMK A01 T01550139  RH  091%=      5-min Rain = 0
KAHS 161219Z 09001KT 15/14 A3008 RMK A01 T01540138  RH  090%=      5-min Rain = 0
KAHS 161220Z 08001KT 15/14 A3008 RMK A01 T01540139  RH  090%=      5-min Rain = 0
KAHS 161221Z 08001KT 16/14 A3008 RMK A01 T01550140  RH  091%=      5-min Rain = 0
KAHS 161222Z 08002KT 16/14 A3009 RMK A01 T01550140  RH  090%=      5-min Rain = 0
KAHS 161223Z 08002KT 16/14 A3009 RMK A01 T01550140  RH  090%=      5-min Rain = 0
KAHS 161224Z 08001KT 16/14 A3009 RMK A01 T01550140  RH  090%=      5-min Rain = 0
KAHS 161225Z 08001KT 16/14 A3009 RMK A01 T01560139  RH  090%=      5-min Rain = 0
KAHS 161226Z 09002KT 16/14 A3009 RMK A01 T01550139  RH  090%=      5-min Rain = 0
KAHS 161227Z 09002KT 16/14 A3009 RMK A01 T01550138  RH  090%=      5-min Rain = 0
KAHS 161228Z 09002KT 16/14 A3009 RMK A01 T01550138  RH  090%=      5-min Rain = 0
KAHS 161229Z 09002KT 16/14 A3009 RMK A01 T01550138  RH  090%=      5-min Rain = 0
KAHS 161230Z 09002KT 16/14 A3009 RMK A01 T01550138  RH  090%=      5-min Rain = 0
KAHS 161231Z 08002KT 16/14 A3009 RMK A01 T01550139  RH  090%=      5-min Rain = 0
KAHS 161232Z 07002KT 16/14 A3009 RMK A01 T01550139  RH  090%=      5-min Rain = 0
KAHS 161233Z 07002KT 16/14 A3009 RMK A01 T01560139  RH  090%=      5-min Rain = 0
KAHS 161234Z 06002KT 16/14 A3009 RMK A01 T01560139  RH  090%=      5-min Rain = 0
KAHS 161235Z 06001KT 16/14 A3009 RMK A01 T01560140  RH  090%=      5-min Rain = 0
KAHS 161236Z 06001KT 16/14 A3009 RMK A01 T01560140  RH  090%=      5-min Rain = 0
KAHS 161237Z 06002KT 16/14 A3009 RMK A01 T01550139  RH  090%=      5-min Rain = 0
KAHS 161238Z 05002KT 16/14 A3009 RMK A01 T01550139  RH  090%=      5-min Rain = 0
KAHS 161239Z 04002KT 15/14 A3009 RMK A01 T01530137  RH  090%=      5-min Rain = 0
KAHS 161240Z 02002KT 15/14 A3009 RMK A01 T01520136  RH  090%=      5-min Rain = 0
KAHS 161241Z 01002KT 15/14 A3009 RMK A01 T01520136  RH  090%=      5-min Rain = 0
KAHS 161242Z 01002KT 15/14 A3009 RMK A01 T01520137  RH  091%=      5-min Rain = 0
KAHS 161243Z 01002KT 15/14 A3009 RMK A01 T01510138  RH  091%=      5-min Rain = 0
KAHS 161244Z 02003KT 15/14 A3009 RMK A01 T01520139  RH  092%=      5-min Rain = 0
KAHS 161245Z 03003KT 15/14 A3009 RMK A01 T01530140  RH  092%=      5-min Rain = 0
KAHS 161246Z 03003KT 15/14 A3009 RMK A01 T01540141  RH  092%=      5-min Rain = 0
KAHS 161247Z 03003KT 15/14 A3009 RMK A01 T01540142  RH  092%=      5-min Rain = 0
KAHS 161248Z 03003KT 16/14 A3009 RMK A01 T01550142  RH  092%=      5-min Rain = 0
KAHS 161249Z 03004KT 16/14 A3009 RMK A01 T01550143  RH  092%=      5-min Rain = 0
KAHS 161250Z 01004KT 16/14 A3009 RMK A01 T01560143  RH  092%=      5-min Rain = 0
KAHS 161251Z 01005KT 16/14 A3009 RMK A01 T01560143  RH  092%=      5-min Rain = 0
KAHS 161252Z 00005KT 16/14 A3009 RMK A01 T01560142  RH  092%=      5-min Rain = 0
KAHS 161253Z 36005KT 16/14 A301 RMK A01 T01570143  RH  091%=      5-min Rain = 0
KAHS 161254Z 00005KT 16/14 A301 RMK A01 T01570142  RH  091%=      5-min Rain = 0
KAHS 161255Z 01005KT 16/14 A301 RMK A01 T01570143  RH  091%=      5-min Rain = 0
KAHS 161256Z 01004KT 16/14 A301 RMK A01 T01580143  RH  091%=      5-min Rain = 0
KAHS 161257Z 02004KT 16/14 A3009 RMK A01 T01580143  RH  090%=      5-min Rain = 0
KAHS 161258Z 02004KT 16/14 A3009 RMK A01 T01590143  RH  090%=      5-min Rain = 0
KAHS 161259Z 02004KT 16/14 A3009 RMK A01 T01590143  RH  090%=      5-min Rain = 0
KAHS 161300Z 02004KT 16/14 A3009 RMK A01 T01600143  RH  090%=      5-min Rain = 0
KAHS 161301Z 02004KT 16/14 A3009 RMK A01 T01600143  RH  089%=      5-min Rain = 0
KAHS 161302Z 02004KT 16/14 A301 RMK A01 T01610143  RH  089%=      5-min Rain = 0
KAHS 161303Z 01004KT 16/14 A301 RMK A01 T01610143  RH  089%=      5-min Rain = 0
KAHS 161304Z 01004KT 16/14 A301 RMK A01 T01610143  RH  089%=      5-min Rain = 0
KAHS 161305Z 02004KT 16/14 A301 RMK A01 T01620143  RH  088%=      5-min Rain = 0
KAHS 161306Z 02004KT 16/14 A301 RMK A01 T01620143  RH  088%=      5-min Rain = 0
KAHS 161307Z 02003KT 16/14 A301 RMK A01 T01620143  RH  088%=      5-min Rain = 0
KAHS 161308Z 02003KT 16/14 A301 RMK A01 T01630143  RH  088%=      5-min Rain = 0
KAHS 161309Z 02003KT 16/14 A301 RMK A01 T01630143  RH  088%=      5-min Rain = 0
KAHS 161310Z 02003KT 16/14 A301 RMK A01 T01640144  RH  088%=      5-min Rain = 0
KAHS 161311Z 02003KT 17/14 A301 RMK A01 T01650144  RH  088%=      5-min Rain = 0
KAHS 161312Z 02003KT 17/15 A301 RMK A01 T01650145  RH  088%=      5-min Rain = 0
KAHS 161313Z 01003KT 17/15 A301 RMK A01 T01660145  RH  088%=      5-min Rain = 0
KAHS 161314Z 00003KT 17/15 A301 RMK A01 T01660146  RH  088%=      5-min Rain = 0
KAHS 161315Z 00003KT 17/15 A301 RMK A01 T01670146  RH  087%=      5-min Rain = 0
KAHS 161316Z 01002KT 17/15 A301 RMK A01 T01680147  RH  087%=      5-min Rain = 0
KAHS 161317Z 01002KT 17/15 A301 RMK A01 T01680147  RH  087%=      5-min Rain = 0
KAHS 161318Z 01002KT 17/15 A301 RMK A01 T01690148  RH  087%=      5-min Rain = 0
KAHS 161319Z 01002KT 17/15 A301 RMK A01 T01700148  RH  087%=      5-min Rain = 0
KAHS 161320Z 01002KT 17/15 A301 RMK A01 T01710149  RH  087%=      5-min Rain = 0
KAHS 161321Z 01003KT 17/15 A301 RMK A01 T01720150  RH  087%=      5-min Rain = 0
KAHS 161322Z 00002KT 17/15 A301 RMK A01 T01730151  RH  087%=      5-min Rain = 0
KAHS 161323Z 01002KT 17/15 A301 RMK A01 T01740151  RH  086%=      5-min Rain = 0
KAHS 161324Z 00002KT 18/15 A301 RMK A01 T01750152  RH  086%=      5-min Rain = 0
KAHS 161325Z 00002KT 18/15 A301 RMK A01 T01760152  RH  086%=      5-min Rain = 0
KAHS 161326Z 01002KT 18/15 A301 RMK A01 T01770152  RH  085%=      5-min Rain = 0
KAHS 161327Z 01002KT 18/15 A301 RMK A01 T01770152  RH  085%=      5-min Rain = 0
KAHS 161328Z 01002KT 18/15 A301 RMK A01 T01780153  RH  085%=      5-min Rain = 0
KAHS 161329Z 01001KT 18/15 A301 RMK A01 T01790153  RH  085%=      5-min Rain = 0
KAHS 161330Z 01000KT 18/15 A301 RMK A01 T01800154  RH  085%=      5-min Rain = 0
KAHS 161331Z 01001KT 18/15 A301 RMK A01 T01810154  RH  084%=      5-min Rain = 0
KAHS 161332Z 01001KT 18/15 A301 RMK A01 T01820154  RH  084%=      5-min Rain = 0
KAHS 161333Z 00001KT 18/16 A301 RMK A01 T01820155  RH  084%=      5-min Rain = 0
KAHS 161334Z 00001KT 18/16 A301 RMK A01 T01830156  RH  084%=      5-min Rain = 0
KAHS 161335Z 36001KT 18/16 A301 RMK A01 T01840156  RH  084%=      5-min Rain = 0
KAHS 161336Z 35001KT 19/16 A301 RMK A01 T01850156  RH  083%=      5-min Rain = 0
KAHS 161337Z 35001KT 19/16 A301 RMK A01 T01850157  RH  083%=      5-min Rain = 0
KAHS 161338Z 35001KT 19/16 A301 RMK A01 T01860157  RH  083%=      5-min Rain = 0
KAHS 161339Z 34001KT 19/16 A301 RMK A01 T01870157  RH  083%=      5-min Rain = 0
KAHS 161340Z 33001KT 19/16 A301 RMK A01 T01870157  RH  083%=      5-min Rain = 0
KAHS 161341Z 33001KT 19/16 A301 RMK A01 T01880158  RH  083%=      5-min Rain = 0
KAHS 161342Z 33001KT 19/16 A301 RMK A01 T01890159  RH  083%=      5-min Rain = 0
KAHS 161343Z 33001KT 19/16 A301 RMK A01 T01890158  RH  082%=      5-min Rain = 0
KAHS 161344Z 33001KT 19/16 A301 RMK A01 T01900159  RH  082%=      5-min Rain = 0
KAHS 161345Z 33001KT 19/16 A301 RMK A01 T01900159  RH  082%=      5-min Rain = 0
KAHS 161346Z 33001KT 19/16 A301 RMK A01 T01910159  RH  082%=      5-min Rain = 0
KAHS 161347Z 33001KT 19/16 A301 RMK A01 T01920160  RH  082%=      5-min Rain = 0
KAHS 161348Z 33001KT 19/16 A301 RMK A01 T01920159  RH  081%=      5-min Rain = 0
KAHS 161349Z 33001KT 19/16 A301 RMK A01 T01920159  RH  081%=      5-min Rain = 0
KAHS 161350Z 33001KT 19/16 A301 RMK A01 T01930160  RH  081%=      5-min Rain = 0
KAHS 161351Z 33001KT 19/16 A301 RMK A01 T01940160  RH  081%=      5-min Rain = 0
KAHS 161352Z 33001KT 20/16 A301 RMK A01 T01950160  RH  080%=      5-min Rain = 0
KAHS 161353Z 32001KT 20/16 A301 RMK A01 T01950160  RH  080%=      5-min Rain = 0
KAHS 161354Z 34001KT 20/16 A301 RMK A01 T01960160  RH  080%=      5-min Rain = 0
KAHS 161355Z 31001KT 20/16 A301 RMK A01 T01970161  RH  080%=      5-min Rain = 0
KAHS 161356Z 29001KT 20/16 A301 RMK A01 T01980161  RH  079%=      5-min Rain = 0
KAHS 161357Z 33000KT 20/16 A301 RMK A01 T01990162  RH  079%=      5-min Rain = 0
KAHS 161358Z 32000KT 20/16 A301 RMK A01 T02000162  RH  079%=      5-min Rain = 0
KAHS 161359Z 33000KT 20/16 A301 RMK A01 T02010161  RH  078%=      5-min Rain = 0
KAHS 161400Z 00000KT 20/16 A301 RMK A01 T02030162  RH  077%=      5-min Rain = 0
KAHS 161401Z 28000KT 20/16 A301 RMK A01 T02040162  RH  076%=      5-min Rain = 0
KAHS 161402Z 30000KT 21/16 A301 RMK A01 T02050161  RH  076%=      5-min Rain = 0
KAHS 161403Z 31000KT 21/16 A301 RMK A01 T02060160  RH  075%=      5-min Rain = 0
KAHS 161404Z 31001KT 21/16 A301 RMK A01 T02060159  RH  075%=      5-min Rain = 0
KAHS 161405Z 31000KT 21/16 A301 RMK A01 T02060159  RH  075%=      5-min Rain = 0
KAHS 161406Z 00000KT 21/16 A301 RMK A01 T02060159  RH  074%=      5-min Rain = 0
KAHS 161407Z 01000KT 21/16 A301 RMK A01 T02080160  RH  074%=      5-min Rain = 0
KAHS 161408Z 01000KT 21/16 A301 RMK A01 T02090160  RH  073%=      5-min Rain = 0
KAHS 161409Z 00000KT 21/16 A301 RMK A01 T02110160  RH  073%=      5-min Rain = 0
KAHS 161410Z 22000KT 21/16 A301 RMK A01 T02120160  RH  072%=      5-min Rain = 0
KAHS 161411Z 23001KT 21/16 A301 RMK A01 T02120160  RH  072%=      5-min Rain = 0
KAHS 161412Z 25001KT 21/16 A301 RMK A01 T02120159  RH  072%=      5-min Rain = 0
KAHS 161413Z 28001KT 21/16 A301 RMK A01 T02120158  RH  071%=      5-min Rain = 0
KAHS 161414Z 26000KT 21/16 A301 RMK A01 T02110158  RH  072%=      5-min Rain = 0
KAHS 161415Z 23000KT 21/16 A301 RMK A01 T02120159  RH  071%=      5-min Rain = 0
KAHS 161416Z 23001KT 21/16 A301 RMK A01 T02130158  RH  071%=      5-min Rain = 0
KAHS 161417Z 24002KT 21/16 A301 RMK A01 T02120157  RH  070%=      5-min Rain = 0
KAHS 161418Z 26002KT 21/16 A301 RMK A01 T02120158  RH  071%=      5-min Rain = 0
KAHS 161419Z 24002KT 21/16 A301 RMK A01 T02110156  RH  071%=      5-min Rain = 0
KAHS 161420Z 24002KT 21/16 A301 RMK A01 T02110155  RH  070%=      5-min Rain = 0
KAHS 161421Z 25002KT 21/16 A301 RMK A01 T02110155  RH  071%=      5-min Rain = 0
KAHS 161422Z 27002KT 21/16 A301 RMK A01 T02110156  RH  070%=      5-min Rain = 0
KAHS 161423Z 25003KT 21/16 A301 RMK A01 T02120155  RH  070%=      5-min Rain = 0
KAHS 161424Z 25003KT 21/15 A301 RMK A01 T02120154  RH  069%=      5-min Rain = 0
KAHS 161425Z 23002KT 21/15 A301 RMK A01 T02110153  RH  070%=      5-min Rain = 0
KAHS 161426Z 25002KT 21/16 A301 RMK A01 T02120155  RH  070%=      5-min Rain = 0
KAHS 161427Z 29003KT 21/15 A301 RMK A01 T02120154  RH  069%=      5-min Rain = 0
KAHS 161428Z 28003KT 21/15 A301 RMK A01 T02130154  RH  069%=      5-min Rain = 0
KAHS 161429Z 29002KT 21/16 A301 RMK A01 T02140155  RH  069%=      5-min Rain = 0
KAHS 161430Z 28001KT 22/16 A301 RMK A01 T02150155  RH  069%=      5-min Rain = 0
KAHS 161431Z 21002KT 22/16 A301 RMK A01 T02170156  RH  068%=      5-min Rain = 0
KAHS 161432Z 24003KT 22/16 A301 RMK A01 T02190155  RH  067%=      5-min Rain = 0
KAHS 161433Z 27003KT 22/15 A301 RMK A01 T02200154  RH  066%=      5-min Rain = 0
KAHS 161434Z 27003KT 22/15 A301 RMK A01 T02200153  RH  066%=      5-min Rain = 0
KAHS 161435Z 23003KT 22/15 A301 RMK A01 T02210154  RH  066%=      5-min Rain = 0
KAHS 161436Z 21002KT 22/15 A301 RMK A01 T02210152  RH  065%=      5-min Rain = 0
KAHS 161437Z 22002KT 22/15 A301 RMK A01 T02210153  RH  065%=      5-min Rain = 0
KAHS 161438Z 23003KT 22/15 A301 RMK A01 T02220154  RH  065%=      5-min Rain = 0
KAHS 161439Z 20002KT 22/15 A301 RMK A01 T02220153  RH  065%=      5-min Rain = 0
KAHS 161440Z 21003KT 22/15 A301 RMK A01 T02230153  RH  065%=      5-min Rain = 0
KAHS 161441Z 21003KT 22/15 A301 RMK A01 T02230154  RH  065%=      5-min Rain = 0
KAHS 161442Z 23003KT 22/15 A301 RMK A01 T02240153  RH  064%=      5-min Rain = 0
KAHS 161443Z 20002KT 22/15 A301 RMK A01 T02240154  RH  065%=      5-min Rain = 0
KAHS 161444Z 20003KT 22/15 A301 RMK A01 T02230154  RH  065%=      5-min Rain = 0
KAHS 161445Z 21002KT 22/15 A301 RMK A01 T02240154  RH  064%=      5-min Rain = 0
KAHS 161446Z 24002KT 23/16 A301 RMK A01 T02250155  RH  065%=      5-min Rain = 0
KAHS 161447Z 24002KT 23/16 A3011 RMK A01 T02270156  RH  064%=      5-min Rain = 0
KAHS 161448Z 20003KT 23/16 A3011 RMK A01 T02270155  RH  064%=      5-min Rain = 0
KAHS 161449Z 19003KT 23/16 A3011 RMK A01 T02270155  RH  064%=      5-min Rain = 0
KAHS 161450Z 24004KT 23/16 A3011 RMK A01 T02280156  RH  064%=      5-min Rain = 0
KAHS 161451Z 24004KT 23/16 A3011 RMK A01 T02280155  RH  063%=      5-min Rain = 0
KAHS 161452Z 25004KT 23/16 A3011 RMK A01 T02280156  RH  064%=      5-min Rain = 0
KAHS 161453Z 23003KT 23/16 A3011 RMK A01 T02280156  RH  064%=      5-min Rain = 0
KAHS 161454Z 21003KT 23/16 A3011 RMK A01 T02280156  RH  064%=      5-min Rain = 0
KAHS 161455Z 26003KT 23/16 A3011 RMK A01 T02300157  RH  064%=      5-min Rain = 0
KAHS 161456Z 26004KT 23/16 A3011 RMK A01 T02300156  RH  063%=      5-min Rain = 0
KAHS 161457Z 24003KT 23/16 A3011 RMK A01 T02290156  RH  063%=      5-min Rain = 0
KAHS 161458Z 22002KT 23/16 A3011 RMK A01 T02280155  RH  063%=      5-min Rain = 0
KAHS 161459Z 22003KT 23/16 A3011 RMK A01 T02290155  RH  063%=      5-min Rain = 0
KAHS 161500Z 22003KT 23/16 A3011 RMK A01 T02290155  RH  063%=      5-min Rain = 0
KAHS 161501Z 20005KT 23/16 A3011 RMK A01 T02310157  RH  063%=      5-min Rain = 0
KAHS 161502Z 20005KT 23/16 A3011 RMK A01 T02310158  RH  063%=      5-min Rain = 0
KAHS 161503Z 20005KT 23/16 A3011 RMK A01 T02310158  RH  063%=      5-min Rain = 0
KAHS 161504Z 22004KT 23/16 A3011 RMK A01 T02320159  RH  064%=      5-min Rain = 0
KAHS 161505Z 23004KT 23/16 A3011 RMK A01 T02330157  RH  063%=      5-min Rain = 0
KAHS 161506Z 21002KT 23/16 A3011 RMK A01 T02340160  RH  063%=      5-min Rain = 0
KAHS 161507Z 23004KT 24/16 A3011 RMK A01 T02350160  RH  062%=      5-min Rain = 0
KAHS 161508Z 25005KT 24/16 A3011 RMK A01 T02350159  RH  062%=      5-min Rain = 0
KAHS 161509Z 24003KT 23/16 A3011 RMK A01 T02340160  RH  063%=      5-min Rain = 0
KAHS 161510Z 22004KT 23/16 A3011 RMK A01 T02340158  RH  062%=      5-min Rain = 0
KAHS 161511Z 23005KT 23/16 A3011 RMK A01 T02340159  RH  063%=      5-min Rain = 0
KAHS 161512Z 22005KT 23/16 A3011 RMK A01 T02340160  RH  063%=      5-min Rain = 0
KAHS 161513Z 24005KT 24/16 A3011 RMK A01 T02350160  RH  063%=      5-min Rain = 0
KAHS 161514Z 23004KT 24/16 A3011 RMK A01 T02350160  RH  063%=      5-min Rain = 0
KAHS 161515Z 22006KT 24/16 A3011 RMK A01 T02360160  RH  062%=      5-min Rain = 0
KAHS 161516Z 24005KT 24/16 A3011 RMK A01 T02370161  RH  062%=      5-min Rain = 0
KAHS 161517Z 22005KT 24/16 A3011 RMK A01 T02390161  RH  062%=      5-min Rain = 0
KAHS 161518Z 23006KT 24/16 A3011 RMK A01 T02360159  RH  062%=      5-min Rain = 0
KAHS 161519Z 23004KT 24/16 A3011 RMK A01 T02350159  RH  062%=      5-min Rain = 0
KAHS 161520Z 22004KT 23/16 A3011 RMK A01 T02340159  RH  062%=      5-min Rain = 0
KAHS 161521Z 23005KT 23/16 A3011 RMK A01 T02340160  RH  063%=      5-min Rain = 0
KAHS 161522Z 23006KT 24/16 A3011 RMK A01 T02350160  RH  063%=      5-min Rain = 0
KAHS 161523Z 22005KT 24/16 A3011 RMK A01 T02360161  RH  063%=      5-min Rain = 0
KAHS 161524Z 22004KT 24/16 A3011 RMK A01 T02380161  RH  062%=      5-min Rain = 0
KAHS 161525Z 21004KT 24/16 A3011 RMK A01 T02370160  RH  062%=      5-min Rain = 0
KAHS 161526Z 21004KT 24/16 A3011 RMK A01 T02380161  RH  062%=      5-min Rain = 0
KAHS 161527Z 22006KT 24/16 A3011 RMK A01 T02410162  RH  061%=      5-min Rain = 0
KAHS 161528Z 22007KT 24/16 A3011 RMK A01 T02390160  RH  061%=      5-min Rain = 0
KAHS 161529Z 21005KT 24/16 A3011 RMK A01 T02370161  RH  062%=      5-min Rain = 0
KAHS 161530Z 22005KT 24/16 A3011 RMK A01 T02370161  RH  062%=      5-min Rain = 0
KAHS 161531Z 23003KT 24/16 A3011 RMK A01 T02370161  RH  062%=      5-min Rain = 0
KAHS 161532Z 22006KT 24/16 A3011 RMK A01 T02390162  RH  062%=      5-min Rain = 0
KAHS 161533Z 23005KT 24/16 A3011 RMK A01 T02400161  RH  061%=      5-min Rain = 0
KAHS 161534Z 22006KT 24/16 A3011 RMK A01 T02410162  RH  061%=      5-min Rain = 0
KAHS 161535Z 21005KT 24/16 A3011 RMK A01 T02410161  RH  061%=      5-min Rain = 0
KAHS 161536Z 19004KT 24/16 A3011 RMK A01 T02400162  RH  061%=      5-min Rain = 0
KAHS 161537Z 18007KT 24/16 A3011 RMK A01 T02420162  RH  061%=      5-min Rain = 0
KAHS 161538Z 20006KT 24/16 A3011 RMK A01 T02430162  RH  061%=      5-min Rain = 0
KAHS 161539Z 20005KT 24/16 A3011 RMK A01 T02420161  RH  061%=      5-min Rain = 0
KAHS 161540Z 19004KT 24/16 A3011 RMK A01 T02430163  RH  061%=      5-min Rain = 0
KAHS 161541Z 21004KT 24/16 A3011 RMK A01 T02440162  RH  060%=      5-min Rain = 0
KAHS 161542Z 17003KT 25/16 A3011 RMK A01 T02450163  RH  060%=      5-min Rain = 0
KAHS 161543Z 18003KT 25/16 A3011 RMK A01 T02460162  RH  059%=      5-min Rain = 0
KAHS 161544Z 18006KT 25/16 A3011 RMK A01 T02470163  RH  060%=      5-min Rain = 0
KAHS 161545Z 19005KT 25/16 A3011 RMK A01 T02490163  RH  059%=      5-min Rain = 0
KAHS 161546Z 21006KT 25/16 A3012 RMK A01 T02490163  RH  059%=      5-min Rain = 0
KAHS 161547Z 19004KT 25/16 A3012 RMK A01 T02490163  RH  059%=      5-min Rain = 0
KAHS 161548Z 18004KT 25/16 A3012 RMK A01 T02490163  RH  059%=      5-min Rain = 0
KAHS 161549Z 20005KT 25/16 A3012 RMK A01 T02500163  RH  059%=      5-min Rain = 0
KAHS 161550Z 17003KT 25/17 A3012 RMK A01 T02510165  RH  059%=      5-min Rain = 0
KAHS 161551Z 20005KT 25/17 A3012 RMK A01 T02530165  RH  058%=      5-min Rain = 0
KAHS 161552Z 21005KT 25/16 A3012 RMK A01 T02520163  RH  058%=      5-min Rain = 0
KAHS 161553Z 22004KT 25/16 A3012 RMK A01 T02510163  RH  058%=      5-min Rain = 0
KAHS 161554Z 22005KT 25/16 A3012 RMK A01 T02510162  RH  058%=      5-min Rain = 0
KAHS 161555Z 23004KT 25/16 A3012 RMK A01 T02490162  RH  058%=      5-min Rain = 0
KAHS 161556Z 23005KT 25/16 A3012 RMK A01 T02490162  RH  058%=      5-min Rain = 0
KAHS 161557Z 25004KT 25/16 A3012 RMK A01 T02490162  RH  058%=      5-min Rain = 0
KAHS 161558Z 26005KT 25/16 A3012 RMK A01 T02510161  RH  058%=      5-min Rain = 0
KAHS 161559Z 22005KT 25/16 A3011 RMK A01 T02540163  RH  057%=      5-min Rain = 0
KAHS 161600Z 18003KT 26/16 A3011 RMK A01 T02560163  RH  056%=      5-min Rain = 0
KAHS 161601Z 22003KT 26/16 A3011 RMK A01 T02590164  RH  056%=      5-min Rain = 0
KAHS 161602Z 23006KT 26/16 A3011 RMK A01 T02610163  RH  055%=      5-min Rain = 0
KAHS 161603Z 23004KT 26/16 A3012 RMK A01 T02590161  RH  055%=      5-min Rain = 0
KAHS 161604Z 24003KT 26/16 A3012 RMK A01 T02560161  RH  056%=      5-min Rain = 0
KAHS 161605Z 22001KT 26/16 A3012 RMK A01 T02560162  RH  056%=      5-min Rain = 0
KAHS 161606Z 20003KT 26/16 A3012 RMK A01 T02590164  RH  056%=      5-min Rain = 0
KAHS 161607Z 24005KT 26/16 A3012 RMK A01 T02600162  RH  055%=      5-min Rain = 0
KAHS 161608Z 23005KT 26/16 A3012 RMK A01 T02590162  RH  055%=      5-min Rain = 0
KAHS 161609Z 22005KT 26/16 A3012 RMK A01 T02590162  RH  055%=      5-min Rain = 0
KAHS 161610Z 21004KT 26/16 A3012 RMK A01 T02580162  RH  055%=      5-min Rain = 0
KAHS 161611Z 24004KT 26/16 A3012 RMK A01 T02590164  RH  056%=      5-min Rain = 0
KAHS 161612Z 23004KT 26/16 A3012 RMK A01 T02600162  RH  055%=      5-min Rain = 0
KAHS 161613Z 16000KT 26/16 A3012 RMK A01 T02590162  RH  055%=      5-min Rain = 0
KAHS 161614Z 32000KT 26/16 A3011 RMK A01 T02600163  RH  055%=      5-min Rain = 0
KAHS 161615Z 25002KT 26/16 A3011 RMK A01 T02600162  RH  055%=      5-min Rain = 0
KAHS 161616Z 23004KT 26/16 A3011 RMK A01 T02600162  RH  055%=      5-min Rain = 0
KAHS 161617Z 19006KT 26/16 A3011 RMK A01 T02580162  RH  055%=      5-min Rain = 0
KAHS 161618Z 21004KT 26/16 A3011 RMK A01 T02560162  RH  056%=      5-min Rain = 0
KAHS 161619Z 21003KT 26/16 A3011 RMK A01 T02570163  RH  056%=      5-min Rain = 0
KAHS 161620Z 21004KT 26/16 A3011 RMK A01 T02590163  RH  056%=      5-min Rain = 0
KAHS 161621Z 19005KT 26/16 A3011 RMK A01 T02610164  RH  055%=      5-min Rain = 0
KAHS 161622Z 19005KT 26/16 A3011 RMK A01 T02600161  RH  054%=      5-min Rain = 0
KAHS 161623Z 16006KT 26/16 A3011 RMK A01 T02600163  RH  055%=      5-min Rain = 0
KAHS 161624Z 15005KT 26/16 A3011 RMK A01 T02620164  RH  055%=      5-min Rain = 0
KAHS 161625Z 15004KT 26/16 A3011 RMK A01 T02630162  RH  054%=      5-min Rain = 0
KAHS 161626Z 15003KT 26/16 A3011 RMK A01 T02640164  RH  054%=      5-min Rain = 0
KAHS 161627Z 13001KT 27/16 A3011 RMK A01 T02650162  RH  053%=      5-min Rain = 0
KAHS 161628Z 18001KT 27/16 A3011 RMK A01 T02650162  RH  053%=      5-min Rain = 0
KAHS 161629Z 15005KT 27/17 A3011 RMK A01 T02680165  RH  053%=      5-min Rain = 0
KAHS 161630Z 15003KT 27/16 A3011 RMK A01 T02700163  RH  052%=      5-min Rain = 0
KAHS 161631Z 25003KT 27/16 A3011 RMK A01 T02720164  RH  051%=      5-min Rain = 0
KAHS 161632Z 24006KT 27/16 A3011 RMK A01 T02710161  RH  051%=      5-min Rain = 0
KAHS 161633Z 23007KT 27/16 A3011 RMK A01 T02710160  RH  051%=      5-min Rain = 0
KAHS 161634Z 22005KT 27/16 A3011 RMK A01 T02700159  RH  050%=      5-min Rain = 0
KAHS 161635Z 22004KT 27/16 A3011 RMK A01 T02680156  RH  050%=      5-min Rain = 0
KAHS 161636Z 22003KT 27/16 A3011 RMK A01 T02660157  RH  051%=      5-min Rain = 0
KAHS 161637Z 24001KT 27/16 A3011 RMK A01 T02660158  RH  051%=      5-min Rain = 0
KAHS 161638Z 25006KT 27/16 A3011 RMK A01 T02680157  RH  051%=      5-min Rain = 0
KAHS 161639Z 20006KT 27/16 A3011 RMK A01 T02710157  RH  050%=      5-min Rain = 0
KAHS 161640Z 21004KT 27/16 A3011 RMK A01 T02710155  RH  049%=      5-min Rain = 0
KAHS 161641Z 20005KT 27/16 A3011 RMK A01 T02710156  RH  049%=      5-min Rain = 0
KAHS 161642Z 23004KT 27/16 A3011 RMK A01 T02720155  RH  049%=      5-min Rain = 0
KAHS 161643Z 21007KT 27/16 A3011 RMK A01 T02730157  RH  049%=      5-min Rain = 0
KAHS 161644Z 19005KT 27/16 A3011 RMK A01 T02710157  RH  049%=      5-min Rain = 0
KAHS 161645Z 15006KT 27/16 A3011 RMK A01 T02730158  RH  050%=      5-min Rain = 0
KAHS 161646Z 15006KT 27/16 A3011 RMK A01 T02730156  RH  049%=      5-min Rain = 0
KAHS 161647Z 16004KT 27/16 A3011 RMK A01 T02730155  RH  048%=      5-min Rain = 0
KAHS 161648Z 19006KT 27/16 A3011 RMK A01 T02740155  RH  048%=      5-min Rain = 0
KAHS 161649Z 19007KT 28/15 A3011 RMK A01 T02750154  RH  048%=      5-min Rain = 0
KAHS 161650Z 19006KT 28/15 A3011 RMK A01 T02750151  RH  047%=      5-min Rain = 0
KAHS 161651Z 17005KT 28/15 A3011 RMK A01 T02760152  RH  047%=      5-min Rain = 0
KAHS 161652Z 17003KT 28/15 A3011 RMK A01 T02770153  RH  047%=      5-min Rain = 0
KAHS 161653Z 17004KT 28/15 A3011 RMK A01 T02800154  RH  046%=      5-min Rain = 0
KAHS 161654Z 22004KT 28/15 A3011 RMK A01 T02790151  RH  046%=      5-min Rain = 0
KAHS 161655Z 21005KT 28/15 A3011 RMK A01 T02750152  RH  047%=      5-min Rain = 0
KAHS 161656Z 22003KT 27/15 A3011 RMK A01 T02730153  RH  048%=      5-min Rain = 0
KAHS 161657Z 19002KT 27/16 A3011 RMK A01 T02740155  RH  048%=      5-min Rain = 0
KAHS 161658Z 24003KT 28/16 A3011 RMK A01 T02790156  RH  047%=      5-min Rain = 0
KAHS 161659Z 21006KT 28/15 A3011 RMK A01 T02820153  RH  045%=      5-min Rain = 0
KAHS 161700Z 17005KT 28/15 A3011 RMK A01 T02830153  RH  045%=      5-min Rain = 0
KAHS 161701Z 19004KT 28/15 A3011 RMK A01 T02830152  RH  045%=      5-min Rain = 0
KAHS 161702Z 22004KT 28/15 A3011 RMK A01 T02840152  RH  045%=      5-min Rain = 0
KAHS 161703Z 20003KT 29/15 A3011 RMK A01 T02860153  RH  044%=      5-min Rain = 0
KAHS 161704Z 18003KT 29/15 A3011 RMK A01 T02870153  RH  044%=      5-min Rain = 0
KAHS 161705Z 16005KT 29/15 A3011 RMK A01 T02870153  RH  044%=      5-min Rain = 0
KAHS 161706Z 17003KT 29/16 A3011 RMK A01 T02880155  RH  044%=      5-min Rain = 0
KAHS 161707Z 17004KT 29/15 A3011 RMK A01 T02890153  RH  044%=      5-min Rain = 0
KAHS 161708Z 16006KT 29/15 A3011 RMK A01 T02890151  RH  043%=      5-min Rain = 0
KAHS 161709Z 17004KT 29/15 A3011 RMK A01 T02880151  RH  043%=      5-min Rain = 0
KAHS 161710Z 18004KT 29/15 A3011 RMK A01 T02870150  RH  043%=      5-min Rain = 0
KAHS 161711Z 14004KT 29/15 A3011 RMK A01 T02870151  RH  044%=      5-min Rain = 0
KAHS 161712Z 14003KT 29/15 A3011 RMK A01 T02880152  RH  044%=      5-min Rain = 0
KAHS 161713Z 19005KT 29/15 A3011 RMK A01 T02900152  RH  043%=      5-min Rain = 0
KAHS 161714Z 16006KT 29/15 A3011 RMK A01 T02900153  RH  043%=      5-min Rain = 0
KAHS 161715Z 14007KT 29/15 A3011 RMK A01 T02910151  RH  043%=      5-min Rain = 0
KAHS 161716Z 15003KT 29/15 A3011 RMK A01 T02890150  RH  043%=      5-min Rain = 0
KAHS 161717Z 17003KT 29/15 A3011 RMK A01 T02880150  RH  043%=      5-min Rain = 0
KAHS 161718Z 16004KT 29/15 A3011 RMK A01 T02920154  RH  043%=      5-min Rain = 0
KAHS 161719Z 14006KT 30/15 A301 RMK A01 T02960154  RH  042%=      5-min Rain = 0
KAHS 161720Z 17007KT 30/15 A301 RMK A01 T02950152  RH  042%=      5-min Rain = 0
KAHS 161721Z 18006KT 29/15 A301 RMK A01 T02930152  RH  042%=      5-min Rain = 0
KAHS 161722Z 17004KT 29/15 A301 RMK A01 T02910150  RH  042%=      5-min Rain = 0
KAHS 161723Z 17004KT 29/15 A301 RMK A01 T02890152  RH  043%=      5-min Rain = 0
KAHS 161724Z 15003KT 29/15 A301 RMK A01 T02880152  RH  044%=      5-min Rain = 0
KAHS 161725Z 14004KT 29/15 A301 RMK A01 T02930154  RH  043%=      5-min Rain = 0
KAHS 161726Z 12002KT 29/15 A301 RMK A01 T02920150  RH  042%=      5-min Rain = 0
KAHS 161727Z 08002KT 29/15 A301 RMK A01 T02910151  RH  043%=      5-min Rain = 0
KAHS 161728Z 14002KT 29/15 A301 RMK A01 T02920152  RH  042%=      5-min Rain = 0
KAHS 161729Z 17006KT 29/15 A301 RMK A01 T02930153  RH  043%=      5-min Rain = 0
KAHS 161730Z 17007KT 29/15 A301 RMK A01 T02900150  RH  043%=      5-min Rain = 0
KAHS 161731Z 18006KT 29/15 A301 RMK A01 T02850150  RH  044%=      5-min Rain = 0
KAHS 161732Z 17006KT 28/15 A301 RMK A01 T02840151  RH  044%=      5-min Rain = 0
KAHS 161733Z 14006KT 28/15 A301 RMK A01 T02840152  RH  044%=      5-min Rain = 0
KAHS 161734Z 13006KT 29/15 A301 RMK A01 T02850151  RH  044%=      5-min Rain = 0
KAHS 161735Z 16006KT 28/15 A301 RMK A01 T02840151  RH  044%=      5-min Rain = 0
KAHS 161736Z 14005KT 28/15 A301 RMK A01 T02840151  RH  045%=      5-min Rain = 0
KAHS 161737Z 13005KT 28/15 A301 RMK A01 T02840151  RH  044%=      5-min Rain = 0
KAHS 161738Z 15005KT 28/15 A301 RMK A01 T02840151  RH  044%=      5-min Rain = 0
KAHS 161739Z 16004KT 28/15 A301 RMK A01 T02840149  RH  044%=      5-min Rain = 0
KAHS 161740Z 18003KT 28/15 A301 RMK A01 T02830150  RH  044%=      5-min Rain = 0
KAHS 161741Z 19003KT 28/15 A301 RMK A01 T02830149  RH  044%=      5-min Rain = 0
KAHS 161742Z 19004KT 28/15 A301 RMK A01 T02820150  RH  045%=      5-min Rain = 0
KAHS 161743Z 19005KT 28/15 A301 RMK A01 T02820150  RH  044%=      5-min Rain = 0
KAHS 161744Z 19004KT 28/15 A301 RMK A01 T02810151  RH  045%=      5-min Rain = 0
KAHS 161745Z 20004KT 28/15 A301 RMK A01 T02830151  RH  045%=      5-min Rain = 0
KAHS 161746Z 21003KT 28/15 A301 RMK A01 T02830150  RH  044%=      5-min Rain = 0
KAHS 161747Z 17004KT 28/15 A301 RMK A01 T02830152  RH  045%=      5-min Rain = 0
KAHS 161748Z 17002KT 29/15 A301 RMK A01 T02860152  RH  044%=      5-min Rain = 0
KAHS 161749Z 18004KT 29/15 A301 RMK A01 T02870151  RH  043%=      5-min Rain = 0
KAHS 161750Z 21005KT 29/15 A301 RMK A01 T02870151  RH  044%=      5-min Rain = 0
KAHS 161751Z 21007KT 29/15 A301 RMK A01 T02860150  RH  043%=      5-min Rain = 0
KAHS 161752Z 21006KT 29/15 A301 RMK A01 T02850150  RH  044%=      5-min Rain = 0
KAHS 161753Z 23006KT 29/15 A301 RMK A01 T02860149  RH  043%=      5-min Rain = 0
KAHS 161754Z 23004KT 29/15 A301 RMK A01 T02860148  RH  043%=      5-min Rain = 0
KAHS 161755Z 27002KT 28/15 A301 RMK A01 T02840148  RH  043%=      5-min Rain = 0
KAHS 161756Z 28002KT 28/15 A301 RMK A01 T02830149  RH  044%=      5-min Rain = 0
KAHS 161757Z 26004KT 29/15 A301 RMK A01 T02860150  RH  043%=      5-min Rain = 0
KAHS 161758Z 24004KT 29/15 A301 RMK A01 T02880149  RH  043%=      5-min Rain = 0
KAHS 161759Z 24003KT 29/15 A301 RMK A01 T02920151  RH  042%=      5-min Rain = 0
KAHS 161800Z 22001KT 30/15 A301 RMK A01 T02960151  RH  041%=      5-min Rain = 0
KAHS 161801Z 23005KT 30/15 A301 RMK A01 T02980150  RH  041%=      5-min Rain = 0
KAHS 161802Z 23005KT 30/15 A301 RMK A01 T02950148  RH  041%=      5-min Rain = 0
KAHS 161803Z 26004KT 29/15 A3009 RMK A01 T02900147  RH  042%=      5-min Rain = 0
KAHS 161804Z 22004KT 29/15 A3009 RMK A01 T02900148  RH  042%=      5-min Rain = 0
KAHS 161805Z 21005KT 29/15 A3009 RMK A01 T02900147  RH  042%=      5-min Rain = 0
KAHS 161806Z 22005KT 29/15 A3009 RMK A01 T02900146  RH  042%=      5-min Rain = 0
KAHS 161807Z 24004KT 29/14 A3009 RMK A01 T02870144  RH  042%=      5-min Rain = 0
KAHS 161808Z 24003KT 29/14 A3009 RMK A01 T02850144  RH  042%=      5-min Rain = 0
KAHS 161809Z 24003KT 29/15 A3009 RMK A01 T02870147  RH  043%=      5-min Rain = 0
KAHS 161810Z 21004KT 29/15 A3009 RMK A01 T02900147  RH  042%=      5-min Rain = 0
KAHS 161811Z 22003KT 29/15 A3009 RMK A01 T02900145  RH  041%=      5-min Rain = 0
KAHS 161812Z 25000KT 29/14 A3009 RMK A01 T02880143  RH  041%=      5-min Rain = 0
KAHS 161813Z 25002KT 29/14 A3009 RMK A01 T02870144  RH  042%=      5-min Rain = 0
KAHS 161814Z 22005KT 29/15 A3009 RMK A01 T02880145  RH  042%=      5-min Rain = 0
KAHS 161815Z 22004KT 29/14 A3009 RMK A01 T02860142  RH  041%=      5-min Rain = 0
KAHS 161816Z 23003KT 28/14 A3009 RMK A01 T02840142  RH  042%=      5-min Rain = 0
KAHS 161817Z 20002KT 28/14 A3009 RMK A01 T02830142  RH  042%=      5-min Rain = 0
KAHS 161818Z 20001KT 28/14 A3009 RMK A01 T02840142  RH  042%=      5-min Rain = 0
KAHS 161819Z 17000KT 29/14 A3009 RMK A01 T02870142  RH  041%=      5-min Rain = 0
KAHS 161820Z 00000KT 29/14 A3009 RMK A01 T02900141  RH  040%=      5-min Rain = 0
KAHS 161821Z 09002KT 29/14 A3009 RMK A01 T02920142  RH  040%=      5-min Rain = 0
KAHS 161822Z 11001KT 29/14 A3009 RMK A01 T02910141  RH  040%=      5-min Rain = 0
KAHS 161823Z 23001KT 29/14 A3009 RMK A01 T02910141  RH  040%=      5-min Rain = 0
KAHS 161824Z 25004KT 29/14 A3009 RMK A01 T02920141  RH  040%=      5-min Rain = 0
KAHS 161825Z 26005KT 29/14 A3009 RMK A01 T02920140  RH  039%=      5-min Rain = 0
KAHS 161826Z 25003KT 29/14 A3009 RMK A01 T02900140  RH  040%=      5-min Rain = 0
KAHS 161827Z 25001KT 29/14 A3009 RMK A01 T02900142  RH  040%=      5-min Rain = 0
KAHS 161828Z 31003KT 29/14 A3009 RMK A01 T02940144  RH  040%=      5-min Rain = 0
KAHS 161829Z 32004KT 29/14 A3009 RMK A01 T02930142  RH  040%=      5-min Rain = 0
KAHS 161830Z 31003KT 29/14 A3009 RMK A01 T02930143  RH  040%=      5-min Rain = 0
KAHS 161831Z 32005KT 29/15 A3009 RMK A01 T02940145  RH  040%=      5-min Rain = 0
KAHS 161832Z 35005KT 30/14 A3009 RMK A01 T02950144  RH  040%=      5-min Rain = 0
KAHS 161833Z 02003KT 29/14 A3009 RMK A01 T02940143  RH  040%=      5-min Rain = 0
KAHS 161834Z 00001KT 29/14 A3009 RMK A01 T02930144  RH  040%=      5-min Rain = 0
KAHS 161835Z 33001KT 30/15 A3009 RMK A01 T02960146  RH  040%=      5-min Rain = 0
KAHS 161836Z 22002KT 30/14 A3009 RMK A01 T02990144  RH  039%=      5-min Rain = 0
KAHS 161837Z 21004KT 30/14 A3009 RMK A01 T03000143  RH  038%=      5-min Rain = 0
KAHS 161838Z 21004KT 30/14 A3009 RMK A01 T02990143  RH  038%=      5-min Rain = 0
KAHS 161839Z 21003KT 30/14 A3009 RMK A01 T03000143  RH  038%=      5-min Rain = 0
KAHS 161840Z 24001KT 30/14 A3009 RMK A01 T03010142  RH  038%=      5-min Rain = 0
KAHS 161841Z 27002KT 30/14 A3008 RMK A01 T03030142  RH  037%=      5-min Rain = 0
KAHS 161842Z 26002KT 30/14 A3008 RMK A01 T03010140  RH  037%=      5-min Rain = 0
KAHS 161843Z 29004KT 30/14 A3008 RMK A01 T02980139  RH  038%=      5-min Rain = 0
KAHS 161844Z 29004KT 30/14 A3008 RMK A01 T02960139  RH  038%=      5-min Rain = 0
KAHS 161845Z 31004KT 29/14 A3008 RMK A01 T02940140  RH  039%=      5-min Rain = 0
KAHS 161846Z 34002KT 29/14 A3008 RMK A01 T02930141  RH  039%=      5-min Rain = 0
KAHS 161847Z 04001KT 29/14 A3008 RMK A01 T02930140  RH  039%=      5-min Rain = 0
KAHS 161848Z 02003KT 30/14 A3008 RMK A01 T02950142  RH  039%=      5-min Rain = 0
KAHS 161849Z 34005KT 30/14 A3008 RMK A01 T03010142  RH  038%=      5-min Rain = 0
KAHS 161850Z 33003KT 30/14 A3008 RMK A01 T03020141  RH  037%=      5-min Rain = 0
KAHS 161851Z 32005KT 30/14 A3008 RMK A01 T03020142  RH  038%=      5-min Rain = 0
KAHS 161852Z 34006KT 30/14 A3008 RMK A01 T03030141  RH  037%=      5-min Rain = 0
KAHS 161853Z 34003KT 30/14 A3008 RMK A01 T02990141  RH  038%=      5-min Rain = 0
KAHS 161854Z 34001KT 30/14 A3008 RMK A01 T02980141  RH  038%=      5-min Rain = 0
KAHS 161855Z 29003KT 30/14 A3008 RMK A01 T03030143  RH  038%=      5-min Rain = 0
KAHS 161856Z 26005KT 31/14 A3008 RMK A01 T03060141  RH  037%=      5-min Rain = 0
KAHS 161857Z 23003KT 31/14 A3008 RMK A01 T03060142  RH  037%=      5-min Rain = 0
KAHS 161858Z 19005KT 31/14 A3008 RMK A01 T03060144  RH  037%=      5-min Rain = 0
KAHS 161859Z 20005KT 31/15 A3008 RMK A01 T03060145  RH  038%=      5-min Rain = 0
KAHS 161900Z 14006KT 31/15 A3008 RMK A01 T03060146  RH  038%=      5-min Rain = 0
KAHS 161901Z 15007KT 31/15 A3008 RMK A01 T03080147  RH  038%=      5-min Rain = 0
KAHS 161902Z 16006KT 31/15 A3008 RMK A01 T03080145  RH  037%=      5-min Rain = 0
KAHS 161903Z 16008KT 31/15 A3008 RMK A01 T03080146  RH  037%=      5-min Rain = 0
KAHS 161904Z 17005KT 31/15 A3008 RMK A01 T03070145  RH  038%=      5-min Rain = 0
KAHS 161905Z 16005KT 31/15 A3008 RMK A01 T03100148  RH  037%=      5-min Rain = 0
KAHS 161906Z 14004KT 31/14 A3008 RMK A01 T03100143  RH  036%=      5-min Rain = 0
KAHS 161907Z 19006KT 31/14 A3008 RMK A01 T03080144  RH  037%=      5-min Rain = 0
KAHS 161908Z 19006KT 31/14 A3007 RMK A01 T03050144  RH  038%=      5-min Rain = 0
KAHS 161909Z 14006KT 30/15 A3007 RMK A01 T03030145  RH  038%=      5-min Rain = 0
KAHS 161910Z 16005KT 30/15 A3007 RMK A01 T03040145  RH  038%=      5-min Rain = 0
KAHS 161911Z 15004KT 31/15 A3007 RMK A01 T03080149  RH  038%=      5-min Rain = 0
KAHS 161912Z 16006KT 31/15 A3007 RMK A01 T03120149  RH  037%=      5-min Rain = 0
KAHS 161913Z 16006KT 32/15 A3007 RMK A01 T03160146  RH  036%=      5-min Rain = 0
KAHS 161914Z 18003KT 31/14 A3007 RMK A01 T03140144  RH  035%=      5-min Rain = 0
KAHS 161915Z 14007KT 31/15 A3007 RMK A01 T03120145  RH  036%=      5-min Rain = 0
KAHS 161916Z 14006KT 31/14 A3007 RMK A01 T03110144  RH  036%=      5-min Rain = 0
KAHS 161917Z 14006KT 31/14 A3007 RMK A01 T03110144  RH  036%=      5-min Rain = 0
KAHS 161918Z 13004KT 31/14 A3007 RMK A01 T03100142  RH  036%=      5-min Rain = 0
KAHS 161919Z 18004KT 31/14 A3007 RMK A01 T03100143  RH  036%=      5-min Rain = 0
KAHS 161920Z 21004KT 31/14 A3007 RMK A01 T03100142  RH  036%=      5-min Rain = 0
KAHS 161921Z 21004KT 31/14 A3007 RMK A01 T03080141  RH  036%=      5-min Rain = 0
KAHS 161922Z 18005KT 31/14 A3007 RMK A01 T03070142  RH  037%=      5-min Rain = 0
KAHS 161923Z 17007KT 31/14 A3007 RMK A01 T03120142  RH  036%=      5-min Rain = 0
KAHS 161924Z 16003KT 31/14 A3007 RMK A01 T03110140  RH  035%=      5-min Rain = 0
KAHS 161925Z 19003KT 31/14 A3007 RMK A01 T03070140  RH  036%=      5-min Rain = 0
KAHS 161926Z 28001KT 31/14 A3007 RMK A01 T03050140  RH  037%=      5-min Rain = 0
KAHS 161927Z 22001KT 31/14 A3007 RMK A01 T03050141  RH  037%=      5-min Rain = 0
KAHS 161928Z 31001KT 31/14 A3007 RMK A01 T03060141  RH  037%=      5-min Rain = 0
KAHS 161929Z 34004KT 31/14 A3007 RMK A01 T03050142  RH  037%=      5-min Rain = 0
KAHS 161930Z 31004KT 30/14 A3007 RMK A01 T03040142  RH  037%=      5-min Rain = 0
KAHS 161931Z 32004KT 30/14 A3007 RMK A01 T03010141  RH  038%=      5-min Rain = 0
KAHS 161932Z 32004KT 30/14 A3007 RMK A01 T02980142  RH  039%=      5-min Rain = 0
KAHS 161933Z 32004KT 30/14 A3007 RMK A01 T02960141  RH  039%=      5-min Rain = 0
KAHS 161934Z 34002KT 30/14 A3007 RMK A01 T02950140  RH  039%=      5-min Rain = 0
KAHS 161935Z 01000KT 30/14 A3007 RMK A01 T02970140  RH  038%=      5-min Rain = 0
KAHS 161936Z 09002KT 30/14 A3007 RMK A01 T02970139  RH  038%=      5-min Rain = 0
KAHS 161937Z 06004KT 30/14 A3006 RMK A01 T02990140  RH  038%=      5-min Rain = 0
KAHS 161938Z 03005KT 30/14 A3006 RMK A01 T03010141  RH  038%=      5-min Rain = 0
KAHS 161939Z 01005KT 30/14 A3006 RMK A01 T03000140  RH  038%=      5-min Rain = 0
KAHS 161940Z 01004KT 30/14 A3006 RMK A01 T03000141  RH  038%=      5-min Rain = 0
KAHS 161941Z 03004KT 30/14 A3006 RMK A01 T03000141  RH  038%=      5-min Rain = 0
KAHS 161942Z 03004KT 30/14 A3006 RMK A01 T03000141  RH  038%=      5-min Rain = 0
KAHS 161943Z 01004KT 30/14 A3006 RMK A01 T03020142  RH  038%=      5-min Rain = 0
KAHS 161944Z 01002KT 30/14 A3006 RMK A01 T03030142  RH  037%=      5-min Rain = 0
KAHS 161945Z 03001KT 30/14 A3006 RMK A01 T03030142  RH  037%=      5-min Rain = 0
KAHS 161946Z 09001KT 30/14 A3006 RMK A01 T03030141  RH  037%=      5-min Rain = 0
KAHS 161947Z 11002KT 30/14 A3006 RMK A01 T03040142  RH  037%=      5-min Rain = 0
KAHS 161948Z 14002KT 31/14 A3006 RMK A01 T03050140  RH  037%=      5-min Rain = 0
KAHS 161949Z 17001KT 31/14 A3006 RMK A01 T03050140  RH  037%=      5-min Rain = 0
KAHS 161950Z 19002KT 31/14 A3006 RMK A01 T03060140  RH  036%=      5-min Rain = 0
KAHS 161951Z 14001KT 31/14 A3006 RMK A01 T03060140  RH  036%=      5-min Rain = 0
KAHS 161952Z 16001KT 31/14 A3006 RMK A01 T03080140  RH  036%=      5-min Rain = 0
KAHS 161953Z 17003KT 31/14 A3006 RMK A01 T03090139  RH  036%=      5-min Rain = 0
KAHS 161954Z 18001KT 31/14 A3006 RMK A01 T03080138  RH  035%=      5-min Rain = 0
KAHS 161955Z 05001KT 31/14 A3006 RMK A01 T03090140  RH  036%=      5-min Rain = 0
KAHS 161956Z 01001KT 31/14 A3006 RMK A01 T03100139  RH  035%=      5-min Rain = 0
KAHS 161957Z 03004KT 31/14 A3006 RMK A01 T03110138  RH  035%=      5-min Rain = 0
KAHS 161958Z 02005KT 31/14 A3006 RMK A01 T03130138  RH  034%=      5-min Rain = 0
KAHS 161959Z 02004KT 31/14 A3006 RMK A01 T03120136  RH  034%=      5-min Rain = 0
KAHS 162000Z 02003KT 31/14 A3006 RMK A01 T03100137  RH  035%=      5-min Rain = 0
KAHS 162001Z 02002KT 31/14 A3006 RMK A01 T03100139  RH  035%=      5-min Rain = 0
KAHS 162002Z 02002KT 31/14 A3006 RMK A01 T03100138  RH  035%=      5-min Rain = 0
KAHS 162003Z 03001KT 31/14 A3006 RMK A01 T03100138  RH  035%=      5-min Rain = 0
KAHS 162004Z 27000KT 31/14 A3006 RMK A01 T03100137  RH  035%=      5-min Rain = 0
KAHS 162005Z 27001KT 31/14 A3006 RMK A01 T03110138  RH  035%=      5-min Rain = 0
KAHS 162006Z 06002KT 31/14 A3006 RMK A01 T03130138  RH  034%=      5-min Rain = 0
KAHS 162007Z 04005KT 31/14 A3006 RMK A01 T03140137  RH  034%=      5-min Rain = 0
KAHS 162008Z 05003KT 31/14 A3006 RMK A01 T03140135  RH  034%=      5-min Rain = 0
KAHS 162009Z 05002KT 32/14 A3005 RMK A01 T03150135  RH  033%=      5-min Rain = 0
KAHS 162010Z 35004KT 32/14 A3005 RMK A01 T03150135  RH  033%=      5-min Rain = 0
KAHS 162011Z 34004KT 31/14 A3005 RMK A01 T03140136  RH  034%=      5-min Rain = 0
KAHS 162012Z 36001KT 31/14 A3005 RMK A01 T03140135  RH  034%=      5-min Rain = 0
KAHS 162013Z 32003KT 31/14 A3005 RMK A01 T03140135  RH  034%=      5-min Rain = 0
KAHS 162014Z 00005KT 32/14 A3005 RMK A01 T03150136  RH  034%=      5-min Rain = 0
KAHS 162015Z 01004KT 32/14 A3005 RMK A01 T03150137  RH  034%=      5-min Rain = 0
KAHS 162016Z 33004KT 32/14 A3005 RMK A01 T03170137  RH  034%=      5-min Rain = 0
KAHS 162017Z 33006KT 32/14 A3005 RMK A01 T03170138  RH  034%=      5-min Rain = 0
KAHS 162018Z 35004KT 32/14 A3005 RMK A01 T03160136  RH  034%=      5-min Rain = 0
KAHS 162019Z 31001KT 32/14 A3005 RMK A01 T03150135  RH  033%=      5-min Rain = 0
KAHS 162020Z 23001KT 32/13 A3005 RMK A01 T03150133  RH  033%=      5-min Rain = 0
KAHS 162021Z 21001KT 31/13 A3005 RMK A01 T03140133  RH  033%=      5-min Rain = 0
KAHS 162022Z 34004KT 31/13 A3005 RMK A01 T03140134  RH  033%=      5-min Rain = 0
KAHS 162023Z 33006KT 31/13 A3005 RMK A01 T03130132  RH  033%=      5-min Rain = 0
KAHS 162024Z 34004KT 31/13 A3005 RMK A01 T03120131  RH  033%=      5-min Rain = 0
KAHS 162025Z 34003KT 31/13 A3005 RMK A01 T03110132  RH  034%=      5-min Rain = 0
KAHS 162026Z 34004KT 31/13 A3005 RMK A01 T03120134  RH  034%=      5-min Rain = 0
KAHS 162027Z 36005KT 32/13 A3005 RMK A01 T03150134  RH  033%=      5-min Rain = 0
KAHS 162028Z 35005KT 31/13 A3005 RMK A01 T03130134  RH  034%=      5-min Rain = 0
KAHS 162029Z 34003KT 31/13 A3005 RMK A01 T03110133  RH  034%=      5-min Rain = 0
KAHS 162030Z 32002KT 31/13 A3005 RMK A01 T03100134  RH  034%=      5-min Rain = 0
KAHS 162031Z 31003KT 31/13 A3005 RMK A01 T03090132  RH  034%=      5-min Rain = 0
KAHS 162032Z 32003KT 31/13 A3004 RMK A01 T03080133  RH  034%=      5-min Rain = 0
KAHS 162033Z 33006KT 31/13 A3004 RMK A01 T03080134  RH  035%=      5-min Rain = 0
KAHS 162034Z 32005KT 31/14 A3004 RMK A01 T03100136  RH  035%=      5-min Rain = 0
KAHS 162035Z 32006KT 31/14 A3004 RMK A01 T03120136  RH  034%=      5-min Rain = 0
KAHS 162036Z 29005KT 31/14 A3004 RMK A01 T03120135  RH  034%=      5-min Rain = 0
KAHS 162037Z 28003KT 31/13 A3004 RMK A01 T03120133  RH  034%=      5-min Rain = 0
KAHS 162038Z 33003KT 31/13 A3004 RMK A01 T03120134  RH  034%=      5-min Rain = 0
KAHS 162039Z 31003G9KT 32/14 A3004 RMK A01 T03150135  RH  033%=      5-min Rain = 0
KAHS 162040Z 34005KT 32/14 A3004 RMK A01 T03170135  RH  033%=      5-min Rain = 0
KAHS 162041Z 30001KT 32/13 A3004 RMK A01 T03170134  RH  033%=      5-min Rain = 0
KAHS 162042Z 03002KT 32/13 A3004 RMK A01 T03180134  RH  033%=      5-min Rain = 0
KAHS 162043Z 33002KT 32/13 A3004 RMK A01 T03190134  RH  032%=      5-min Rain = 0
KAHS 162044Z 34003KT 32/14 A3004 RMK A01 T03160135  RH  033%=      5-min Rain = 0
KAHS 162045Z 03004KT 32/14 A3004 RMK A01 T03150141  RH  035%=      5-min Rain = 0
KAHS 162046Z 34006KT 32/14 A3004 RMK A01 T03180137  RH  033%=      5-min Rain = 0
KAHS 162047Z 34006KT 32/14 A3004 RMK A01 T03180135  RH  033%=      5-min Rain = 0
KAHS 162048Z 03007KT 32/14 A3004 RMK A01 T03180141  RH  034%=      5-min Rain = 0
KAHS 162049Z 05005KT 32/15 A3004 RMK A01 T03210148  RH  035%=      5-min Rain = 0
KAHS 162050Z 05006KT 32/15 A3004 RMK A01 T03220149  RH  035%=      5-min Rain = 0
KAHS 162051Z 04005KT 32/15 A3004 RMK A01 T03210149  RH  035%=      5-min Rain = 0
KAHS 162052Z 06006KT 32/15 A3004 RMK A01 T03230150  RH  035%=      5-min Rain = 0
KAHS 162053Z 10009KT 33/15 A3004 RMK A01 T03250149  RH  035%=      5-min Rain = 0
KAHS 162054Z 13009KT 32/15 A3004 RMK A01 T03220148  RH  035%=      5-min Rain = 0
KAHS 162055Z 11009KT 32/15 A3004 RMK A01 T03210150  RH  035%=      5-min Rain = 0
KAHS 162056Z 09011KT 32/15 A3004 RMK A01 T03180148  RH  036%=      5-min Rain = 0
KAHS 162057Z 10008KT 31/15 A3004 RMK A01 T03130148  RH  037%=      5-min Rain = 0
KAHS 162058Z 12009KT 31/15 A3004 RMK A01 T03120148  RH  037%=      5-min Rain = 0
KAHS 162059Z 13007KT 31/15 A3004 RMK A01 T03100148  RH  037%=      5-min Rain = 0
KAHS 162100Z 11006KT 31/15 A3004 RMK A01 T03110149  RH  037%=      5-min Rain = 0
KAHS 162101Z 12008KT 32/15 A3004 RMK A01 T03150150  RH  037%=      5-min Rain = 0
KAHS 162102Z 13008KT 32/15 A3004 RMK A01 T03180147  RH  036%=      5-min Rain = 0
KAHS 162103Z 13008KT 32/15 A3004 RMK A01 T03150147  RH  036%=      5-min Rain = 0
KAHS 162104Z 13006G12KT 31/15 A3004 RMK A01 T03120146  RH  037%=      5-min Rain = 0
KAHS 162105Z 13009KT 31/15 A3004 RMK A01 T03110146  RH  037%=      5-min Rain = 0
KAHS 162106Z 15004KT 31/15 A3004 RMK A01 T03090146  RH  037%=      5-min Rain = 0
KAHS 162107Z 13007KT 31/15 A3004 RMK A01 T03130148  RH  037%=      5-min Rain = 0
KAHS 162108Z 14004KT 31/15 A3004 RMK A01 T03140145  RH  036%=      5-min Rain = 0
KAHS 162109Z 08002KT 32/15 A3004 RMK A01 T03150146  RH  036%=      5-min Rain = 0
KAHS 162110Z 10004KT 31/15 A3003 RMK A01 T03140147  RH  036%=      5-min Rain = 0
KAHS 162111Z 12007KT 32/15 A3003 RMK A01 T03150148  RH  036%=      5-min Rain = 0
KAHS 162112Z 13007KT 32/15 A3004 RMK A01 T03150148  RH  036%=      5-min Rain = 0
KAHS 162113Z 11006KT 32/15 A3004 RMK A01 T03160147  RH  036%=      5-min Rain = 0
KAHS 162114Z 10006KT 31/15 A3003 RMK A01 T03130147  RH  036%=      5-min Rain = 0
KAHS 162115Z 11008KT 31/15 A3003 RMK A01 T03130147  RH  037%=      5-min Rain = 0
KAHS 162116Z 09008KT 31/15 A3004 RMK A01 T03140147  RH  036%=      5-min Rain = 0
KAHS 162117Z 09005KT 31/15 A3004 RMK A01 T03120146  RH  037%=      5-min Rain = 0
KAHS 162118Z 11008KT 31/15 A3003 RMK A01 T03090147  RH  037%=      5-min Rain = 0
KAHS 162119Z 10009KT 31/15 A3003 RMK A01 T03110148  RH  037%=      5-min Rain = 0
KAHS 162120Z 10007KT 31/15 A3003 RMK A01 T03120147  RH  037%=      5-min Rain = 0
KAHS 162121Z 08005KT 31/15 A3003 RMK A01 T03120147  RH  037%=      5-min Rain = 0
KAHS 162122Z 09008KT 31/15 A3003 RMK A01 T03120148  RH  037%=      5-min Rain = 0
KAHS 162123Z 09007KT 31/15 A3003 RMK A01 T03140147  RH  036%=      5-min Rain = 0
KAHS 162124Z 10006KT 31/15 A3003 RMK A01 T03120146  RH  037%=      5-min Rain = 0
KAHS 162125Z 09007KT 31/15 A3003 RMK A01 T03120147  RH  037%=      5-min Rain = 0
KAHS 162126Z 11006KT 31/15 A3003 RMK A01 T03130148  RH  037%=      5-min Rain = 0
KAHS 162127Z 13007KT 31/15 A3003 RMK A01 T03140146  RH  036%=      5-min Rain = 0
KAHS 162128Z 12007KT 31/15 A3003 RMK A01 T03120146  RH  036%=      5-min Rain = 0
KAHS 162129Z 10007KT 31/15 A3003 RMK A01 T03110146  RH  037%=      5-min Rain = 0
KAHS 162130Z 10007KT 31/15 A3003 RMK A01 T03090145  RH  037%=      5-min Rain = 0
KAHS 162131Z 12010KT 31/15 A3003 RMK A01 T03080146  RH  037%=      5-min Rain = 0
KAHS 162132Z 12008KT 31/15 A3003 RMK A01 T03060145  RH  038%=      5-min Rain = 0
KAHS 162133Z 14007KT 31/15 A3003 RMK A01 T03070146  RH  038%=      5-min Rain = 0
KAHS 162134Z 15005KT 31/15 A3003 RMK A01 T03070145  RH  037%=      5-min Rain = 0
KAHS 162135Z 12004KT 31/15 A3003 RMK A01 T03060145  RH  037%=      5-min Rain = 0
KAHS 162136Z 09006KT 31/15 A3003 RMK A01 T03060145  RH  038%=      5-min Rain = 0
KAHS 162137Z 10008KT 31/15 A3003 RMK A01 T03050145  RH  038%=      5-min Rain = 0
KAHS 162138Z 13009KT 31/15 A3003 RMK A01 T03060146  RH  038%=      5-min Rain = 0
KAHS 162139Z 12007KT 31/15 A3003 RMK A01 T03070147  RH  038%=      5-min Rain = 0
KAHS 162140Z 13003KT 31/15 A3003 RMK A01 T03060145  RH  037%=      5-min Rain = 0
KAHS 162141Z 16001KT 31/15 A3003 RMK A01 T03070146  RH  038%=      5-min Rain = 0
KAHS 162142Z 12003KT 31/15 A3003 RMK A01 T03080146  RH  037%=      5-min Rain = 0
KAHS 162143Z 13007KT 31/15 A3003 RMK A01 T03080145  RH  037%=      5-min Rain = 0
KAHS 162144Z 11005KT 31/15 A3003 RMK A01 T03060145  RH  038%=      5-min Rain = 0
KAHS 162145Z 10006KT 31/15 A3003 RMK A01 T03080146  RH  037%=      5-min Rain = 0
KAHS 162146Z 10006KT 31/14 A3003 RMK A01 T03070144  RH  037%=      5-min Rain = 0
KAHS 162147Z 13006KT 31/15 A3003 RMK A01 T03060146  RH  038%=      5-min Rain = 0
KAHS 162148Z 14006KT 31/15 A3003 RMK A01 T03060147  RH  038%=      5-min Rain = 0
KAHS 162149Z 11005KT 31/15 A3003 RMK A01 T03070147  RH  038%=      5-min Rain = 0
KAHS 162150Z 11004KT 31/15 A3003 RMK A01 T03060145  RH  038%=      5-min Rain = 0
KAHS 162151Z 11004KT 31/15 A3003 RMK A01 T03050146  RH  038%=      5-min Rain = 0
KAHS 162152Z 12006KT 31/15 A3003 RMK A01 T03050147  RH  038%=      5-min Rain = 0
KAHS 162153Z 11004KT 30/15 A3003 RMK A01 T03040146  RH  038%=      5-min Rain = 0
KAHS 162154Z 15005KT 30/15 A3003 RMK A01 T03040148  RH  039%=      5-min Rain = 0
KAHS 162155Z 17009KT 31/15 A3003 RMK A01 T03050148  RH  038%=      5-min Rain = 0
KAHS 162156Z 18008KT 30/15 A3003 RMK A01 T03040145  RH  038%=      5-min Rain = 0
KAHS 162157Z 17007KT 30/15 A3003 RMK A01 T03030146  RH  038%=      5-min Rain = 0
KAHS 162158Z 16006KT 30/15 A3003 RMK A01 T03030146  RH  039%=      5-min Rain = 0
KAHS 162159Z 16006KT 30/15 A3003 RMK A01 T03030147  RH  039%=      5-min Rain = 0
KAHS 162200Z 16007KT 30/15 A3003 RMK A01 T03030149  RH  039%=      5-min Rain = 0
KAHS 162201Z 15008KT 30/15 A3003 RMK A01 T03020152  RH  040%=      5-min Rain = 0
KAHS 162202Z 16008KT 30/15 A3003 RMK A01 T03000152  RH  041%=      5-min Rain = 0
KAHS 162203Z 15007KT 30/15 A3003 RMK A01 T02980153  RH  041%=      5-min Rain = 0
KAHS 162204Z 16005KT 30/15 A3003 RMK A01 T02980154  RH  042%=      5-min Rain = 0
KAHS 162205Z 18006KT 30/15 A3002 RMK A01 T02980153  RH  042%=      5-min Rain = 0
KAHS 162206Z 16008KT 30/15 A3002 RMK A01 T02980152  RH  041%=      5-min Rain = 0
KAHS 162207Z 16006KT 30/15 A3002 RMK A01 T02980152  RH  041%=      5-min Rain = 0
KAHS 162208Z 16006KT 30/15 A3002 RMK A01 T02990152  RH  041%=      5-min Rain = 0
KAHS 162209Z 16007KT 30/15 A3002 RMK A01 T02980152  RH  041%=      5-min Rain = 0
KAHS 162210Z 17006KT 30/15 A3002 RMK A01 T02970151  RH  041%=      5-min Rain = 0
KAHS 162211Z 14006KT 30/15 A3002 RMK A01 T02970153  RH  042%=      5-min Rain = 0
KAHS 162212Z 14007KT 30/15 A3002 RMK A01 T02980151  RH  041%=      5-min Rain = 0
KAHS 162213Z 15007KT 30/15 A3002 RMK A01 T02980150  RH  041%=      5-min Rain = 0
KAHS 162214Z 16006KT 30/15 A3002 RMK A01 T02970150  RH  041%=      5-min Rain = 0
KAHS 162215Z 14006KT 30/15 A3002 RMK A01 T02980151  RH  041%=      5-min Rain = 0
KAHS 162216Z 14008KT 30/15 A3002 RMK A01 T02980149  RH  040%=      5-min Rain = 0
KAHS 162217Z 14007KT 30/15 A3003 RMK A01 T02980149  RH  040%=      5-min Rain = 0
KAHS 162218Z 14006KT 30/15 A3003 RMK A01 T02970149  RH  041%=      5-min Rain = 0
KAHS 162219Z 13007KT 30/15 A3002 RMK A01 T02970149  RH  040%=      5-min Rain = 0
KAHS 162220Z 14006KT 30/15 A3003 RMK A01 T02970149  RH  041%=      5-min Rain = 0
KAHS 162221Z 14008KT 30/15 A3003 RMK A01 T02980149  RH  040%=      5-min Rain = 0
KAHS 162222Z 14007KT 30/15 A3003 RMK A01 T02980148  RH  040%=      5-min Rain = 0
KAHS 162223Z 12006KT 30/15 A3003 RMK A01 T02970148  RH  040%=      5-min Rain = 0
KAHS 162224Z 12007KT 30/15 A3002 RMK A01 T02980149  RH  040%=      5-min Rain = 0
KAHS 162225Z 12005KT 30/15 A3003 RMK A01 T02990149  RH  040%=      5-min Rain = 0
KAHS 162226Z 11005KT 30/15 A3003 RMK A01 T03000149  RH  040%=      5-min Rain = 0
KAHS 162227Z 11007KT 30/15 A3003 RMK A01 T02990149  RH  040%=      5-min Rain = 0
KAHS 162228Z 12007KT 30/15 A3002 RMK A01 T02980148  RH  040%=      5-min Rain = 0
KAHS 162229Z 12007KT 30/15 A3002 RMK A01 T02970148  RH  040%=      5-min Rain = 0
KAHS 162230Z 12007KT 30/15 A3002 RMK A01 T02970148  RH  040%=      5-min Rain = 0
KAHS 162231Z 14006KT 30/15 A3003 RMK A01 T02970149  RH  041%=      5-min Rain = 0
KAHS 162232Z 13005KT 30/15 A3003 RMK A01 T02980150  RH  040%=      5-min Rain = 0
KAHS 162233Z 13006KT 30/15 A3003 RMK A01 T02980149  RH  040%=      5-min Rain = 0
KAHS 162234Z 13006KT 30/15 A3003 RMK A01 T02970150  RH  041%=      5-min Rain = 0
KAHS 162235Z 13007KT 30/15 A3002 RMK A01 T02970149  RH  040%=      5-min Rain = 0
KAHS 162236Z 12007KT 30/15 A3002 RMK A01 T02970149  RH  041%=      5-min Rain = 0
KAHS 162237Z 12006KT 30/15 A3002 RMK A01 T02960149  RH  041%=      5-min Rain = 0
KAHS 162238Z 14007KT 30/15 A3002 RMK A01 T02970150  RH  041%=      5-min Rain = 0
KAHS 162239Z 13007KT 30/15 A3002 RMK A01 T02960150  RH  041%=      5-min Rain = 0
KAHS 162240Z 14007KT 30/15 A3002 RMK A01 T02960151  RH  041%=      5-min Rain = 0
KAHS 162241Z 16005KT 30/15 A3002 RMK A01 T02960151  RH  041%=      5-min Rain = 0
KAHS 162242Z 15006KT 30/15 A3002 RMK A01 T02970152  RH  041%=      5-min Rain = 0
KAHS 162243Z 15007KT 30/15 A3002 RMK A01 T02970152  RH  041%=      5-min Rain = 0
KAHS 162244Z 14007KT 30/15 A3002 RMK A01 T02960152  RH  042%=      5-min Rain = 0
KAHS 162245Z 13008KT 30/15 A3002 RMK A01 T02960152  RH  042%=      5-min Rain = 0
KAHS 162246Z 13006KT 30/15 A3002 RMK A01 T02960150  RH  041%=      5-min Rain = 0
KAHS 162247Z 13006KT 30/15 A3002 RMK A01 T02960150  RH  041%=      5-min Rain = 0
KAHS 162248Z 13005KT 30/15 A3002 RMK A01 T02960150  RH  041%=      5-min Rain = 0
KAHS 162249Z 15005KT 30/15 A3002 RMK A01 T02960151  RH  041%=      5-min Rain = 0
KAHS 162250Z 14006KT 30/15 A3002 RMK A01 T02960151  RH  041%=      5-min Rain = 0
KAHS 162251Z 14007KT 30/15 A3002 RMK A01 T02960150  RH  041%=      5-min Rain = 0
KAHS 162252Z 15007KT 30/15 A3002 RMK A01 T02950150  RH  041%=      5-min Rain = 0
KAHS 162253Z 15007KT 29/15 A3002 RMK A01 T02940154  RH  043%=      5-min Rain = 0
KAHS 162254Z 16006KT 29/16 A3002 RMK A01 T02930157  RH  044%=      5-min Rain = 0
KAHS 162255Z 16006KT 29/16 A3002 RMK A01 T02930157  RH  044%=      5-min Rain = 0
KAHS 162256Z 16006KT 29/16 A3002 RMK A01 T02920158  RH  044%=      5-min Rain = 0
KAHS 162257Z 15006KT 29/16 A3002 RMK A01 T02920157  RH  044%=      5-min Rain = 0
KAHS 162258Z 15008KT 29/16 A3002 RMK A01 T02920158  RH  044%=      5-min Rain = 0
KAHS 162259Z 16008KT 29/16 A3002 RMK A01 T02920157  RH  044%=      5-min Rain = 0
KAHS 162300Z 15009KT 29/16 A3002 RMK A01 T02920157  RH  044%=      5-min Rain = 0
KAHS 162301Z 15008KT 29/16 A3002 RMK A01 T02920157  RH  044%=      5-min Rain = 0
KAHS 162302Z 16009KT 29/16 A3002 RMK A01 T02910155  RH  044%=      5-min Rain = 0
KAHS 162303Z 15008KT 29/16 A3002 RMK A01 T02910156  RH  044%=      5-min Rain = 0
KAHS 162304Z 16008KT 29/16 A3002 RMK A01 T02910156  RH  044%=      5-min Rain = 0
KAHS 162305Z 17007KT 29/16 A3002 RMK A01 T02910156  RH  044%=      5-min Rain = 0
KAHS 162306Z 17008KT 29/16 A3002 RMK A01 T02920156  RH  044%=      5-min Rain = 0
KAHS 162307Z 16006KT 29/16 A3002 RMK A01 T02920156  RH  044%=      5-min Rain = 0
KAHS 162308Z 16006KT 29/16 A3002 RMK A01 T02920157  RH  044%=      5-min Rain = 0
KAHS 162309Z 16008KT 29/16 A3002 RMK A01 T02920158  RH  044%=      5-min Rain = 0
KAHS 162310Z 16009KT 29/16 A3002 RMK A01 T02920157  RH  044%=      5-min Rain = 0
KAHS 162311Z 16008KT 29/16 A3002 RMK A01 T02910158  RH  044%=      5-min Rain = 0
KAHS 162312Z 17007KT 29/16 A3002 RMK A01 T02910158  RH  044%=      5-min Rain = 0
KAHS 162313Z 17007KT 29/16 A3002 RMK A01 T02910159  RH  045%=      5-min Rain = 0
KAHS 162314Z 17008KT 29/16 A3002 RMK A01 T02910160  RH  045%=      5-min Rain = 0
KAHS 162315Z 17008KT 29/16 A3003 RMK A01 T02910159  RH  045%=      5-min Rain = 0
KAHS 162316Z 16007KT 29/16 A3003 RMK A01 T02900160  RH  045%=      5-min Rain = 0
KAHS 162317Z 16008KT 29/16 A3003 RMK A01 T02910161  RH  045%=      5-min Rain = 0
KAHS 162318Z 15009KT 29/16 A3003 RMK A01 T02900163  RH  046%=      5-min Rain = 0
KAHS 162319Z 16009KT 29/16 A3003 RMK A01 T02900163  RH  046%=      5-min Rain = 0
KAHS 162320Z 16010KT 29/16 A3003 RMK A01 T02890163  RH  046%=      5-min Rain = 0
KAHS 162321Z 16007KT 29/16 A3003 RMK A01 T02890163  RH  046%=      5-min Rain = 0
KAHS 162322Z 16008KT 29/16 A3003 RMK A01 T02890163  RH  046%=      5-min Rain = 0
KAHS 162323Z 16009KT 29/16 A3003 RMK A01 T02900163  RH  046%=      5-min Rain = 0
KAHS 162324Z 16009KT 29/16 A3003 RMK A01 T02890163  RH  046%=      5-min Rain = 0
KAHS 162325Z 16009KT 29/16 A3003 RMK A01 T02890163  RH  047%=      5-min Rain = 0
KAHS 162326Z 16010KT 29/16 A3003 RMK A01 T02890161  RH  046%=      5-min Rain = 0
KAHS 162327Z 15009KT 29/16 A3003 RMK A01 T02880162  RH  046%=      5-min Rain = 0
KAHS 162328Z 16010KT 29/16 A3003 RMK A01 T02880161  RH  046%=      5-min Rain = 0
KAHS 162329Z 15009KT 29/16 A3003 RMK A01 T02880161  RH  046%=      5-min Rain = 0
KAHS 162330Z 16010KT 29/16 A3003 RMK A01 T02880160  RH  046%=      5-min Rain = 0
KAHS 162331Z 16008KT 29/16 A3003 RMK A01 T02880160  RH  046%=      5-min Rain = 0
KAHS 162332Z 16008KT 29/16 A3003 RMK A01 T02880161  RH  046%=      5-min Rain = 0
KAHS 162333Z 17007KT 29/16 A3003 RMK A01 T02890161  RH  046%=      5-min Rain = 0
KAHS 162334Z 15007KT 29/16 A3003 RMK A01 T02900162  RH  046%=      5-min Rain = 0
KAHS 162335Z 16008KT 29/16 A3003 RMK A01 T02910162  RH  046%=      5-min Rain = 0
KAHS 162336Z 16008KT 29/16 A3003 RMK A01 T02910161  RH  045%=      5-min Rain = 0
KAHS 162337Z 16008KT 29/16 A3003 RMK A01 T02910161  RH  045%=      5-min Rain = 0
KAHS 162338Z 17007KT 29/16 A3003 RMK A01 T02910159  RH  045%=      5-min Rain = 0
KAHS 162339Z 16008KT 29/16 A3003 RMK A01 T02910160  RH  045%=      5-min Rain = 0
KAHS 162340Z 17008KT 29/16 A3003 RMK A01 T02910160  RH  045%=      5-min Rain = 0
KAHS 162341Z 15009KT 29/16 A3003 RMK A01 T02910161  RH  045%=      5-min Rain = 0
KAHS 162342Z 15008KT 29/16 A3003 RMK A01 T02900162  RH  046%=      5-min Rain = 0
KAHS 162343Z 16008KT 29/16 A3004 RMK A01 T02910163  RH  046%=      5-min Rain = 0
KAHS 162344Z 15009KT 29/16 A3004 RMK A01 T02910163  RH  046%=      5-min Rain = 0
KAHS 162345Z 15010KT 29/16 A3004 RMK A01 T02910163  RH  046%=      5-min Rain = 0
KAHS 162346Z 15010KT 29/16 A3004 RMK A01 T02900163  RH  046%=      5-min Rain = 0
KAHS 162347Z 15009KT 29/16 A3004 RMK A01 T02890163  RH  046%=      5-min Rain = 0
KAHS 162348Z 15007KT 29/16 A3004 RMK A01 T02900164  RH  046%=      5-min Rain = 0
KAHS 162349Z 15007KT 29/16 A3004 RMK A01 T02900163  RH  046%=      5-min Rain = 0
KAHS 162350Z 16006G11KT 29/16 A3004 RMK A01 T02900163  RH  046%=      5-min Rain = 0
KAHS 162351Z 16008KT 29/16 A3004 RMK A01 T02900162  RH  046%=      5-min Rain = 0
KAHS 162352Z 16007KT 29/16 A3004 RMK A01 T02900162  RH  046%=      5-min Rain = 0
KAHS 162353Z 16009KT 29/16 A3004 RMK A01 T02900163  RH  046%=      5-min Rain = 0
KAHS 162354Z 15007KT 29/16 A3004 RMK A01 T02900164  RH  047%=      5-min Rain = 0
KAHS 162355Z 15008KT 29/16 A3004 RMK A01 T02890164  RH  047%=      5-min Rain = 0
KAHS 162356Z 15008KT 29/17 A3004 RMK A01 T02890166  RH  047%=      5-min Rain = 0
KAHS 162357Z 14008KT 29/17 A3004 RMK A01 T02880165  RH  047%=      5-min Rain = 0
KAHS 162358Z 15007KT 29/17 A3004 RMK A01 T02880167  RH  048%=      5-min Rain = 0
KAHS 162359Z 15006KT 29/17 A3004 RMK A01 T02880167  RH  048%=      5-min Rain = 0
KAHS 170000Z 15006KT 29/17 A3004 RMK A01 T02880167  RH  048%=      5-min Rain = 0
KAHS 170001Z 16006KT 29/17 A3004 RMK A01 T02880167  RH  048%=      5-min Rain = 0
KAHS 170002Z 16006KT 29/17 A3004 RMK A01 T02880166  RH  048%=      5-min Rain = 0
KAHS 170003Z 15006KT 29/17 A3004 RMK A01 T02880166  RH  047%=      5-min Rain = 0
KAHS 170004Z 15008KT 29/16 A3004 RMK A01 T02880162  RH  046%=      5-min Rain = 0
KAHS 170005Z 15008KT 29/16 A3004 RMK A01 T02880161  RH  046%=      5-min Rain = 0
KAHS 170006Z 16009KT 29/16 A3004 RMK A01 T02870160  RH  046%=      5-min Rain = 0
KAHS 170007Z 15006KT 29/16 A3004 RMK A01 T02870161  RH  046%=      5-min Rain = 0
KAHS 170008Z 15006KT 29/16 A3004 RMK A01 T02870161  RH  046%=      5-min Rain = 0
KAHS 170009Z 15007KT 29/16 A3004 RMK A01 T02870161  RH  047%=      5-min Rain = 0
KAHS 170010Z 14006KT 29/16 A3004 RMK A01 T02860161  RH  047%=      5-min Rain = 0
KAHS 170011Z 15007KT 29/16 A3004 RMK A01 T02860161  RH  047%=      5-min Rain = 0
KAHS 170012Z 16006KT 29/16 A3004 RMK A01 T02860162  RH  047%=      5-min Rain = 0
KAHS 170013Z 15007KT 29/16 A3004 RMK A01 T02860162  RH  047%=      5-min Rain = 0
KAHS 170014Z 15008KT 29/16 A3004 RMK A01 T02860160  RH  046%=      5-min Rain = 0
KAHS 170015Z 15007KT 29/16 A3004 RMK A01 T02860159  RH  046%=      5-min Rain = 0
KAHS 170016Z 15007KT 29/16 A3004 RMK A01 T02850160  RH  047%=      5-min Rain = 0
KAHS 170017Z 15006KT 29/16 A3004 RMK A01 T02850161  RH  047%=      5-min Rain = 0
KAHS 170018Z 15006KT 29/16 A3004 RMK A01 T02850161  RH  047%=      5-min Rain = 0
KAHS 170019Z 15005KT 28/16 A3004 RMK A01 T02840162  RH  047%=      5-min Rain = 0
KAHS 170020Z 15006KT 28/16 A3004 RMK A01 T02840164  RH  048%=      5-min Rain = 0
KAHS 170021Z 15008KT 28/16 A3004 RMK A01 T02830164  RH  048%=      5-min Rain = 0
KAHS 170022Z 15008KT 28/16 A3004 RMK A01 T02830161  RH  048%=      5-min Rain = 0
KAHS 170023Z 15007KT 28/16 A3004 RMK A01 T02830160  RH  047%=      5-min Rain = 0
KAHS 170024Z 14007KT 28/16 A3004 RMK A01 T02820159  RH  047%=      5-min Rain = 0
KAHS 170025Z 15006KT 28/16 A3004 RMK A01 T02820159  RH  047%=      5-min Rain = 0
KAHS 170026Z 14006KT 28/16 A3004 RMK A01 T02820160  RH  047%=      5-min Rain = 0
KAHS 170027Z 15006KT 28/16 A3004 RMK A01 T02820159  RH  047%=      5-min Rain = 0
KAHS 170028Z 15006KT 28/16 A3005 RMK A01 T02820160  RH  047%=      5-min Rain = 0
KAHS 170029Z 14005KT 28/16 A3005 RMK A01 T02820160  RH  048%=      5-min Rain = 0
KAHS 170030Z 14006KT 28/16 A3005 RMK A01 T02810159  RH  047%=      5-min Rain = 0
KAHS 170031Z 15006KT 28/16 A3005 RMK A01 T02810159  RH  047%=      5-min Rain = 0
KAHS 170032Z 14004KT 28/16 A3005 RMK A01 T02810159  RH  047%=      5-min Rain = 0
KAHS 170033Z 14004KT 28/16 A3005 RMK A01 T02800159  RH  048%=      5-min Rain = 0
KAHS 170034Z 14004KT 28/16 A3005 RMK A01 T02800159  RH  048%=      5-min Rain = 0
KAHS 170035Z 15006KT 28/16 A3005 RMK A01 T02800159  RH  048%=      5-min Rain = 0
KAHS 170036Z 14004KT 28/16 A3005 RMK A01 T02790158  RH  048%=      5-min Rain = 0
KAHS 170037Z 14004KT 28/16 A3005 RMK A01 T02790158  RH  048%=      5-min Rain = 0
KAHS 170038Z 13005KT 28/16 A3005 RMK A01 T02780157  RH  048%=      5-min Rain = 0
KAHS 170039Z 14007KT 28/16 A3005 RMK A01 T02780156  RH  047%=      5-min Rain = 0
KAHS 170040Z 14007KT 28/16 A3005 RMK A01 T02780156  RH  047%=      5-min Rain = 0
KAHS 170041Z 13005KT 28/16 A3005 RMK A01 T02780155  RH  047%=      5-min Rain = 0
KAHS 170042Z 14006KT 28/16 A3005 RMK A01 T02780156  RH  047%=      5-min Rain = 0
KAHS 170043Z 14006KT 28/16 A3005 RMK A01 T02780155  RH  047%=      5-min Rain = 0
KAHS 170044Z 14005KT 28/16 A3005 RMK A01 T02770155  RH  047%=      5-min Rain = 0
KAHS 170045Z 14005KT 28/16 A3005 RMK A01 T02770155  RH  047%=      5-min Rain = 0
KAHS 170046Z 14006KT 28/16 A3005 RMK A01 T02760155  RH  047%=      5-min Rain = 0
KAHS 170047Z 13005KT 28/16 A3005 RMK A01 T02760155  RH  047%=      5-min Rain = 0
KAHS 170048Z 13005KT 28/15 A3005 RMK A01 T02760154  RH  047%=      5-min Rain = 0
KAHS 170049Z 13005KT 28/15 A3005 RMK A01 T02760154  RH  047%=      5-min Rain = 0
KAHS 170050Z 13006KT 28/15 A3005 RMK A01 T02760154  RH  047%=      5-min Rain = 0
KAHS 170051Z 13006KT 28/15 A3005 RMK A01 T02750154  RH  047%=      5-min Rain = 0
KAHS 170052Z 13005KT 28/15 A3005 RMK A01 T02750154  RH  047%=      5-min Rain = 0
KAHS 170053Z 13005KT 28/15 A3005 RMK A01 T02750154  RH  048%=      5-min Rain = 0
KAHS 170054Z 13005KT 28/15 A3005 RMK A01 T02750154  RH  048%=      5-min Rain = 0
KAHS 170055Z 12005KT 28/15 A3005 RMK A01 T02750154  RH  048%=      5-min Rain = 0
KAHS 170056Z 12006KT 28/15 A3005 RMK A01 T02750154  RH  048%=      5-min Rain = 0
KAHS 170057Z 13005KT 28/15 A3005 RMK A01 T02750153  RH  048%=      5-min Rain = 0
KAHS 170058Z 13006KT 28/15 A3005 RMK A01 T02750153  RH  048%=      5-min Rain = 0
KAHS 170059Z 12004KT 28/15 A3005 RMK A01 T02750153  RH  048%=      5-min Rain = 0
KAHS 170100Z 12004KT 27/15 A3005 RMK A01 T02740153  RH  048%=      5-min Rain = 0
KAHS 170101Z 12005KT 27/15 A3005 RMK A01 T02730153  RH  048%=      5-min Rain = 0
KAHS 170102Z 12004KT 27/15 A3005 RMK A01 T02730153  RH  048%=      5-min Rain = 0
KAHS 170103Z 12005KT 27/15 A3005 RMK A01 T02730153  RH  048%=      5-min Rain = 0
KAHS 170104Z 11004KT 27/15 A3005 RMK A01 T02730153  RH  048%=      5-min Rain = 0
KAHS 170105Z 12004KT 27/15 A3005 RMK A01 T02720153  RH  048%=      5-min Rain = 0
KAHS 170106Z 11005KT 27/15 A3005 RMK A01 T02720153  RH  048%=      5-min Rain = 0
KAHS 170107Z 12005KT 27/15 A3005 RMK A01 T02720152  RH  048%=      5-min Rain = 0
KAHS 170108Z 11006KT 27/15 A3005 RMK A01 T02720153  RH  048%=      5-min Rain = 0
KAHS 170109Z 11005KT 27/15 A3005 RMK A01 T02720153  RH  048%=      5-min Rain = 0
KAHS 170110Z 11005KT 27/15 A3005 RMK A01 T02720152  RH  048%=      5-min Rain = 0
KAHS 170111Z 12005KT 27/15 A3006 RMK A01 T02710152  RH  048%=      5-min Rain = 0
KAHS 170112Z 11006KT 27/15 A3006 RMK A01 T02710152  RH  048%=      5-min Rain = 0
KAHS 170113Z 12005KT 27/15 A3006 RMK A01 T02710153  RH  048%=      5-min Rain = 0
KAHS 170114Z 11005KT 27/15 A3006 RMK A01 T02710152  RH  048%=      5-min Rain = 0
KAHS 170115Z 11004KT 27/15 A3006 RMK A01 T02700152  RH  048%=      5-min Rain = 0
KAHS 170116Z 10005KT 27/15 A3006 RMK A01 T02700153  RH  049%=      5-min Rain = 0
KAHS 170117Z 10007KT 27/15 A3006 RMK A01 T02700153  RH  049%=      5-min Rain = 0
KAHS 170118Z 10006KT 27/15 A3006 RMK A01 T02700153  RH  049%=      5-min Rain = 0
KAHS 170119Z 10006KT 27/15 A3006 RMK A01 T02700153  RH  049%=      5-min Rain = 0
KAHS 170120Z 11007KT 27/15 A3006 RMK A01 T02700154  RH  049%=      5-min Rain = 0
KAHS 170121Z 11006KT 27/15 A3006 RMK A01 T02700154  RH  049%=      5-min Rain = 0
KAHS 170122Z 10007KT 27/16 A3006 RMK A01 T02700155  RH  049%=      5-min Rain = 0
KAHS 170123Z 11007KT 27/16 A3006 RMK A01 T02690155  RH  049%=      5-min Rain = 0
KAHS 170124Z 11009KT 27/16 A3006 RMK A01 T02690155  RH  050%=      5-min Rain = 0
KAHS 170125Z 11007KT 27/16 A3006 RMK A01 T02690156  RH  050%=      5-min Rain = 0
KAHS 170126Z 11007KT 27/16 A3006 RMK A01 T02690156  RH  050%=      5-min Rain = 0
KAHS 170127Z 11006KT 27/16 A3006 RMK A01 T02690156  RH  050%=      5-min Rain = 0
KAHS 170128Z 11008KT 27/16 A3006 RMK A01 T02680156  RH  050%=      5-min Rain = 0
KAHS 170129Z 10006KT 27/16 A3007 RMK A01 T02680156  RH  050%=      5-min Rain = 0
KAHS 170130Z 11007KT 27/16 A3007 RMK A01 T02680156  RH  050%=      5-min Rain = 0
KAHS 170131Z 11006KT 27/16 A3007 RMK A01 T02680157  RH  050%=      5-min Rain = 0
KAHS 170132Z 11007KT 27/16 A3007 RMK A01 T02680157  RH  051%=      5-min Rain = 0
KAHS 170133Z 11006KT 27/16 A3007 RMK A01 T02670157  RH  051%=      5-min Rain = 0
KAHS 170134Z 11006KT 27/16 A3007 RMK A01 T02670157  RH  051%=      5-min Rain = 0
KAHS 170135Z 12005KT 27/16 A3007 RMK A01 T02670157  RH  051%=      5-min Rain = 0
KAHS 170136Z 11008KT 27/16 A3007 RMK A01 T02660157  RH  051%=      5-min Rain = 0
KAHS 170137Z 11006KT 27/16 A3007 RMK A01 T02660157  RH  051%=      5-min Rain = 0
KAHS 170138Z 12006KT 27/16 A3007 RMK A01 T02660157  RH  051%=      5-min Rain = 0
KAHS 170139Z 12005KT 27/16 A3007 RMK A01 T02650157  RH  051%=      5-min Rain = 0
KAHS 170140Z 11005KT 27/16 A3007 RMK A01 T02650158  RH  052%=      5-min Rain = 0
KAHS 170141Z 12006KT 26/16 A3007 RMK A01 T02640157  RH  052%=      5-min Rain = 0
KAHS 170142Z 12006KT 26/16 A3007 RMK A01 T02640158  RH  052%=      5-min Rain = 0
KAHS 170143Z 11005KT 26/16 A3007 RMK A01 T02640158  RH  052%=      5-min Rain = 0
KAHS 170144Z 11007KT 26/16 A3007 RMK A01 T02630158  RH  052%=      5-min Rain = 0
KAHS 170145Z 11006KT 26/16 A3007 RMK A01 T02640158  RH  052%=      5-min Rain = 0
KAHS 170146Z 11007KT 26/16 A3007 RMK A01 T02630158  RH  052%=      5-min Rain = 0
KAHS 170147Z 11006KT 26/16 A3007 RMK A01 T02630158  RH  052%=      5-min Rain = 0
KAHS 170148Z 11006KT 26/16 A3008 RMK A01 T02630158  RH  053%=      5-min Rain = 0
KAHS 170149Z 11006KT 26/16 A3008 RMK A01 T02630158  RH  053%=      5-min Rain = 0
KAHS 170150Z 11007KT 26/16 A3008 RMK A01 T02630159  RH  053%=      5-min Rain = 0
KAHS 170151Z 10008KT 26/16 A3008 RMK A01 T02630159  RH  053%=      5-min Rain = 0
KAHS 170152Z 11008KT 26/16 A3008 RMK A01 T02630159  RH  053%=      5-min Rain = 0
KAHS 170153Z 10005KT 26/16 A3008 RMK A01 T02630159  RH  053%=      5-min Rain = 0
KAHS 170154Z 11006KT 26/16 A3008 RMK A01 T02620159  RH  053%=      5-min Rain = 0
KAHS 170155Z 10006KT 26/16 A3008 RMK A01 T02620159  RH  053%=      5-min Rain = 0
KAHS 170156Z 11007KT 26/16 A3008 RMK A01 T02610159  RH  053%=      5-min Rain = 0
KAHS 170157Z 10007KT 26/16 A3008 RMK A01 T02610160  RH  053%=      5-min Rain = 0
KAHS 170158Z 10007KT 26/16 A3008 RMK A01 T02610160  RH  054%=      5-min Rain = 0
KAHS 170159Z 10007KT 26/16 A3008 RMK A01 T02610160  RH  054%=      5-min Rain = 0
KAHS 170200Z 10007KT 26/16 A3008 RMK A01 T02610160  RH  054%=      5-min Rain = 0
KAHS 170201Z 11009KT 26/16 A3008 RMK A01 T02610160  RH  054%=      5-min Rain = 0
KAHS 170202Z 10007KT 26/16 A3008 RMK A01 T02610160  RH  054%=      5-min Rain = 0
KAHS 170203Z 10007KT 26/16 A3008 RMK A01 T02610160  RH  054%=      5-min Rain = 0
KAHS 170204Z 10008KT 26/16 A3008 RMK A01 T02610161  RH  054%=      5-min Rain = 0
KAHS 170205Z 09006KT 26/16 A3008 RMK A01 T02600161  RH  054%=      5-min Rain = 0
KAHS 170206Z 10006KT 26/16 A3009 RMK A01 T02600161  RH  054%=      5-min Rain = 0
KAHS 170207Z 10007KT 26/16 A3009 RMK A01 T02600161  RH  054%=      5-min Rain = 0
KAHS 170208Z 10006KT 26/16 A3009 RMK A01 T02600161  RH  055%=      5-min Rain = 0
KAHS 170209Z 09008KT 26/16 A3009 RMK A01 T02590162  RH  055%=      5-min Rain = 0
KAHS 170210Z 10008KT 26/16 A3009 RMK A01 T02600162  RH  055%=      5-min Rain = 0
KAHS 170211Z 10009KT 26/16 A3009 RMK A01 T02600163  RH  055%=      5-min Rain = 0
KAHS 170212Z 10008KT 26/16 A3009 RMK A01 T02600163  RH  055%=      5-min Rain = 0
KAHS 170213Z 10008KT 26/16 A3009 RMK A01 T02600163  RH  055%=      5-min Rain = 0
KAHS 170214Z 10008KT 26/16 A3009 RMK A01 T02600164  RH  055%=      5-min Rain = 0
KAHS 170215Z 10007KT 26/16 A3009 RMK A01 T02600164  RH  055%=      5-min Rain = 0
KAHS 170216Z 10006KT 26/16 A3009 RMK A01 T02590164  RH  056%=      5-min Rain = 0
KAHS 170217Z 10007G12KT 26/16 A3009 RMK A01 T02590164  RH  056%=      5-min Rain = 0
KAHS 170218Z 10008KT 26/16 A3009 RMK A01 T02590164  RH  056%=      5-min Rain = 0
KAHS 170219Z 11007KT 26/16 A3009 RMK A01 T02580164  RH  056%=      5-min Rain = 0
KAHS 170220Z 10007KT 26/16 A3009 RMK A01 T02580164  RH  056%=      5-min Rain = 0
KAHS 170221Z 10007KT 26/16 A3009 RMK A01 T02580164  RH  056%=      5-min Rain = 0
KAHS 170222Z 11008KT 26/16 A3009 RMK A01 T02580164  RH  056%=      5-min Rain = 0
KAHS 170223Z 09007KT 26/16 A301 RMK A01 T02570164  RH  056%=      5-min Rain = 0
KAHS 170224Z 10008KT 26/17 A301 RMK A01 T02570165  RH  057%=      5-min Rain = 0
KAHS 170225Z 10007KT 26/16 A301 RMK A01 T02570164  RH  057%=      5-min Rain = 0
KAHS 170226Z 10006KT 26/16 A301 RMK A01 T02570164  RH  057%=      5-min Rain = 0
KAHS 170227Z 09006KT 26/17 A301 RMK A01 T02570165  RH  057%=      5-min Rain = 0
KAHS 170228Z 10008KT 26/17 A301 RMK A01 T02560165  RH  057%=      5-min Rain = 0
KAHS 170229Z 10006KT 26/17 A301 RMK A01 T02560165  RH  057%=      5-min Rain = 0
KAHS 170230Z 09006KT 26/17 A301 RMK A01 T02560165  RH  057%=      5-min Rain = 0
KAHS 170231Z 11005KT 26/17 A301 RMK A01 T02550165  RH  057%=      5-min Rain = 0
KAHS 170232Z 10006KT 26/17 A301 RMK A01 T02550165  RH  057%=      5-min Rain = 0
KAHS 170233Z 10006KT 25/17 A301 RMK A01 T02540165  RH  058%=      5-min Rain = 0
KAHS 170234Z 09007KT 26/17 A301 RMK A01 T02550165  RH  058%=      5-min Rain = 0
KAHS 170235Z 09006KT 25/17 A301 RMK A01 T02540165  RH  058%=      5-min Rain = 0
KAHS 170236Z 10006KT 25/17 A301 RMK A01 T02540165  RH  058%=      5-min Rain = 0
KAHS 170237Z 09005KT 25/17 A301 RMK A01 T02540165  RH  058%=      5-min Rain = 0
KAHS 170238Z 08004KT 25/17 A301 RMK A01 T02530165  RH  058%=      5-min Rain = 0
KAHS 170239Z 07005KT 25/17 A301 RMK A01 T02530165  RH  058%=      5-min Rain = 0
KAHS 170240Z 08005KT 25/17 A301 RMK A01 T02510165  RH  059%=      5-min Rain = 0
KAHS 170241Z 08005KT 25/17 A3011 RMK A01 T02510165  RH  059%=      5-min Rain = 0
KAHS 170242Z 08005KT 25/17 A3011 RMK A01 T02500165  RH  059%=      5-min Rain = 0
KAHS 170243Z 08005KT 25/17 A3011 RMK A01 T02500165  RH  059%=      5-min Rain = 0
KAHS 170244Z 08004KT 25/16 A3011 RMK A01 T02490164  RH  059%=      5-min Rain = 0
KAHS 170245Z 08003KT 25/16 A3011 RMK A01 T02490164  RH  059%=      5-min Rain = 0
KAHS 170246Z 09004KT 25/17 A3011 RMK A01 T02490165  RH  059%=      5-min Rain = 0
KAHS 170247Z 08006KT 25/17 A3011 RMK A01 T02490165  RH  060%=      5-min Rain = 0
KAHS 170248Z 08005KT 25/17 A3011 RMK A01 T02490165  RH  059%=      5-min Rain = 0
KAHS 170249Z 08005KT 25/17 A3011 RMK A01 T02490165  RH  059%=      5-min Rain = 0
KAHS 170250Z 08005KT 25/17 A3011 RMK A01 T02490165  RH  059%=      5-min Rain = 0
KAHS 170251Z 07003KT 25/17 A3011 RMK A01 T02490165  RH  059%=      5-min Rain = 0
KAHS 170252Z 08004KT 25/17 A3011 RMK A01 T02490165  RH  060%=      5-min Rain = 0
KAHS 170253Z 08005KT 25/17 A3011 RMK A01 T02490165  RH  060%=      5-min Rain = 0
KAHS 170254Z 07004KT 25/17 A3012 RMK A01 T02490165  RH  060%=      5-min Rain = 0
KAHS 170255Z 07004KT 25/17 A3012 RMK A01 T02490165  RH  060%=      5-min Rain = 0
KAHS 170256Z 08004KT 25/17 A3012 RMK A01 T02480165  RH  060%=      5-min Rain = 0
KAHS 170257Z 07004KT 25/17 A3012 RMK A01 T02490165  RH  060%=      5-min Rain = 0
KAHS 170258Z 08004KT 25/17 A3012 RMK A01 T02480165  RH  060%=      5-min Rain = 0
KAHS 170259Z 08004KT 25/17 A3012 RMK A01 T02480165  RH  060%=      5-min Rain = 0
KAHS 170300Z 07004KT 25/17 A3012 RMK A01 T02480166  RH  060%=      5-min Rain = 0
KAHS 170301Z 08004KT 25/17 A3012 RMK A01 T02480166  RH  060%=      5-min Rain = 0
KAHS 170302Z 08004KT 25/17 A3012 RMK A01 T02480166  RH  060%=      5-min Rain = 0
KAHS 170303Z 08004KT 25/17 A3012 RMK A01 T02480166  RH  060%=      5-min Rain = 0
KAHS 170304Z 08004KT 25/17 A3012 RMK A01 T02480166  RH  060%=      5-min Rain = 0
KAHS 170305Z 08004KT 25/17 A3012 RMK A01 T02480166  RH  060%=      5-min Rain = 0
KAHS 170306Z 08004KT 25/17 A3012 RMK A01 T02480166  RH  061%=      5-min Rain = 0
KAHS 170307Z 07006KT 25/17 A3012 RMK A01 T02470166  RH  061%=      5-min Rain = 0
KAHS 170308Z 08007KT 25/17 A3012 RMK A01 T02480166  RH  061%=      5-min Rain = 0
KAHS 170309Z 08005KT 25/17 A3012 RMK A01 T02480167  RH  061%=      5-min Rain = 0
KAHS 170310Z 08004KT 25/17 A3012 RMK A01 T02480167  RH  061%=      5-min Rain = 0
KAHS 170311Z 08005KT 25/17 A3012 RMK A01 T02480167  RH  061%=      5-min Rain = 0
KAHS 170312Z 08005KT 25/17 A3012 RMK A01 T02470167  RH  061%=      5-min Rain = 0
KAHS 170313Z 08005KT 25/17 A3012 RMK A01 T02470167  RH  061%=      5-min Rain = 0
KAHS 170314Z 09005KT 25/17 A3012 RMK A01 T02470167  RH  061%=      5-min Rain = 0
KAHS 170315Z 08005KT 25/17 A3012 RMK A01 T02470167  RH  061%=      5-min Rain = 0
KAHS 170316Z 08006KT 25/17 A3012 RMK A01 T02470168  RH  061%=      5-min Rain = 0
KAHS 170317Z 08005KT 25/17 A3012 RMK A01 T02470167  RH  061%=      5-min Rain = 0
KAHS 170318Z 08005KT 25/17 A3012 RMK A01 T02470168  RH  061%=      5-min Rain = 0
KAHS 170319Z 08005KT 25/17 A3012 RMK A01 T02460168  RH  062%=      5-min Rain = 0
KAHS 170320Z 08006KT 25/17 A3012 RMK A01 T02460168  RH  062%=      5-min Rain = 0
KAHS 170321Z 09006KT 25/17 A3012 RMK A01 T02450167  RH  062%=      5-min Rain = 0
KAHS 170322Z 08005KT 25/17 A3012 RMK A01 T02450167  RH  062%=      5-min Rain = 0
KAHS 170323Z 08007KT 25/17 A3012 RMK A01 T02450167  RH  062%=      5-min Rain = 0
KAHS 170324Z 08006KT 25/17 A3012 RMK A01 T02450167  RH  062%=      5-min Rain = 0
KAHS 170325Z 09004KT 25/17 A3012 RMK A01 T02450167  RH  062%=      5-min Rain = 0
KAHS 170326Z 08005KT 24/17 A3012 RMK A01 T02440167  RH  062%=      5-min Rain = 0
KAHS 170327Z 08006KT 24/17 A3012 RMK A01 T02440167  RH  062%=      5-min Rain = 0
KAHS 170328Z 08005KT 24/17 A3012 RMK A01 T02440167  RH  062%=      5-min Rain = 0
KAHS 170329Z 08005KT 24/17 A3012 RMK A01 T02430167  RH  063%=      5-min Rain = 0
KAHS 170330Z 08005KT 24/17 A3012 RMK A01 T02430167  RH  063%=      5-min Rain = 0
KAHS 170331Z 08006KT 24/17 A3012 RMK A01 T02430167  RH  063%=      5-min Rain = 0
KAHS 170332Z 08005KT 24/17 A3012 RMK A01 T02430167  RH  063%=      5-min Rain = 0
KAHS 170333Z 08005KT 24/17 A3012 RMK A01 T02430168  RH  063%=      5-min Rain = 0
KAHS 170334Z 08006KT 24/17 A3012 RMK A01 T02420167  RH  063%=      5-min Rain = 0
KAHS 170335Z 08008KT 24/17 A3012 RMK A01 T02420167  RH  063%=      5-min Rain = 0
KAHS 170336Z 08007KT 24/17 A3012 RMK A01 T02420167  RH  063%=      5-min Rain = 0
KAHS 170337Z 08007KT 24/17 A3012 RMK A01 T02420167  RH  063%=      5-min Rain = 0
KAHS 170338Z 08007KT 24/17 A3012 RMK A01 T02420168  RH  063%=      5-min Rain = 0
KAHS 170339Z 08007KT 24/17 A3012 RMK A01 T02420168  RH  063%=      5-min Rain = 0
KAHS 170340Z 08006KT 24/17 A3012 RMK A01 T02410167  RH  063%=      5-min Rain = 0
KAHS 170341Z 08005KT 24/17 A3012 RMK A01 T02410168  RH  063%=      5-min Rain = 0
KAHS 170342Z 08007KT 24/17 A3012 RMK A01 T02410167  RH  064%=      5-min Rain = 0
KAHS 170343Z 08007KT 24/17 A3012 RMK A01 T02410168  RH  064%=      5-min Rain = 0
KAHS 170344Z 08007KT 24/17 A3012 RMK A01 T02410168  RH  064%=      5-min Rain = 0
KAHS 170345Z 08008KT 24/17 A3012 RMK A01 T02410168  RH  064%=      5-min Rain = 0
KAHS 170346Z 09007KT 24/17 A3012 RMK A01 T02410168  RH  064%=      5-min Rain = 0
KAHS 170347Z 08006KT 24/17 A3012 RMK A01 T02410168  RH  064%=      5-min Rain = 0
KAHS 170348Z 09005KT 24/17 A3012 RMK A01 T02410168  RH  064%=      5-min Rain = 0
KAHS 170349Z 09004KT 24/17 A3012 RMK A01 T02400168  RH  064%=      5-min Rain = 0
KAHS 170350Z 09005KT 24/17 A3012 RMK A01 T02390168  RH  064%=      5-min Rain = 0
KAHS 170351Z 08004KT 24/17 A3012 RMK A01 T02390168  RH  064%=      5-min Rain = 0
KAHS 170352Z 09006KT 24/17 A3012 RMK A01 T02390168  RH  064%=      5-min Rain = 0
KAHS 170353Z 09006KT 24/17 A3012 RMK A01 T02390168  RH  064%=      5-min Rain = 0
KAHS 170354Z 08005KT 24/17 A3012 RMK A01 T02390168  RH  065%=      5-min Rain = 0
KAHS 170355Z 08005KT 24/17 A3012 RMK A01 T02380168  RH  065%=      5-min Rain = 0
KAHS 170356Z 08005KT 24/17 A3013 RMK A01 T02380168  RH  065%=      5-min Rain = 0
KAHS 170357Z 09006KT 24/17 A3013 RMK A01 T02380168  RH  065%=      5-min Rain = 0
KAHS 170358Z 08007KT 24/17 A3013 RMK A01 T02370168  RH  065%=      5-min Rain = 0
KAHS 170359Z 09005KT 24/17 A3013 RMK A01 T02380168  RH  065%=      5-min Rain = 0
KAHS 170400Z 08007KT 24/17 A3013 RMK A01 T02380168  RH  065%=      5-min Rain = 0
KAHS 170401Z 09006KT 24/17 A3013 RMK A01 T02380168  RH  065%=      5-min Rain = 0
KAHS 170402Z 08007KT 24/17 A3013 RMK A01 T02380168  RH  065%=      5-min Rain = 0
KAHS 170403Z 08007KT 24/17 A3013 RMK A01 T02380168  RH  065%=      5-min Rain = 0
KAHS 170404Z 08005KT 24/17 A3013 RMK A01 T02380168  RH  065%=      5-min Rain = 0
KAHS 170405Z 08006KT 24/17 A3013 RMK A01 T02370168  RH  065%=      5-min Rain = 0
KAHS 170406Z 07007KT 24/17 A3013 RMK A01 T02380168  RH  065%=      5-min Rain = 0
KAHS 170407Z 07006KT 24/17 A3013 RMK A01 T02380168  RH  065%=      5-min Rain = 0
KAHS 170408Z 08005KT 24/17 A3013 RMK A01 T02380168  RH  065%=      5-min Rain = 0
KAHS 170409Z 08006KT 24/17 A3013 RMK A01 T02370168  RH  065%=      5-min Rain = 0
KAHS 170410Z 08008KT 24/17 A3013 RMK A01 T02370168  RH  065%=      5-min Rain = 0
KAHS 170411Z 08006KT 24/17 A3013 RMK A01 T02370168  RH  065%=      5-min Rain = 0
KAHS 170412Z 08006KT 24/17 A3013 RMK A01 T02370168  RH  065%=      5-min Rain = 0
KAHS 170413Z 08007KT 24/17 A3013 RMK A01 T02370168  RH  065%=      5-min Rain = 0
KAHS 170414Z 08006KT 24/17 A3013 RMK A01 T02370168  RH  065%=      5-min Rain = 0
KAHS 170415Z 08006KT 24/17 A3013 RMK A01 T02360168  RH  066%=      5-min Rain = 0
KAHS 170416Z 08005KT 24/17 A3013 RMK A01 T02360168  RH  066%=      5-min Rain = 0
KAHS 170417Z 08006KT 24/17 A3013 RMK A01 T02360168  RH  066%=      5-min Rain = 0
KAHS 170418Z 09006KT 24/17 A3013 RMK A01 T02350168  RH  066%=      5-min Rain = 0
KAHS 170419Z 08006KT 24/17 A3013 RMK A01 T02350168  RH  066%=      5-min Rain = 0
KAHS 170420Z 09007KT 24/17 A3013 RMK A01 T02350168  RH  066%=      5-min Rain = 0
KAHS 170421Z 08005KT 24/17 A3013 RMK A01 T02350167  RH  066%=      5-min Rain = 0
KAHS 170422Z 08007KT 24/17 A3013 RMK A01 T02350168  RH  066%=      5-min Rain = 0
KAHS 170423Z 08006KT 24/17 A3013 RMK A01 T02350168  RH  066%=      5-min Rain = 0
KAHS 170424Z 09005KT 24/17 A3013 RMK A01 T02350167  RH  066%=      5-min Rain = 0
KAHS 170425Z 09006KT 24/17 A3013 RMK A01 T02350167  RH  066%=      5-min Rain = 0
KAHS 170426Z 09007KT 24/17 A3013 RMK A01 T02350167  RH  066%=      5-min Rain = 0
KAHS 170427Z 08007KT 24/17 A3013 RMK A01 T02350167  RH  066%=      5-min Rain = 0
KAHS 170428Z 09006KT 24/17 A3013 RMK A01 T02350167  RH  066%=      5-min Rain = 0
KAHS 170429Z 09005KT 24/17 A3013 RMK A01 T02350167  RH  066%=      5-min Rain = 0
KAHS 170430Z 08006KT 24/17 A3013 RMK A01 T02350167  RH  066%=      5-min Rain = 0
KAHS 170431Z 09004KT 23/17 A3013 RMK A01 T02340167  RH  066%=      5-min Rain = 0
KAHS 170432Z 09006KT 23/17 A3013 RMK A01 T02340167  RH  066%=      5-min Rain = 0
KAHS 170433Z 08006KT 23/17 A3013 RMK A01 T02340168  RH  066%=      5-min Rain = 0
KAHS 170434Z 09005KT 23/17 A3013 RMK A01 T02340167  RH  066%=      5-min Rain = 0
KAHS 170435Z 09006KT 23/17 A3013 RMK A01 T02340167  RH  066%=      5-min Rain = 0
KAHS 170436Z 09006KT 23/17 A3013 RMK A01 T02330167  RH  066%=      5-min Rain = 0
KAHS 170437Z 09005KT 23/17 A3013 RMK A01 T02330167  RH  066%=      5-min Rain = 0
KAHS 170438Z 09006KT 23/17 A3013 RMK A01 T02330167  RH  067%=      5-min Rain = 0
KAHS 170439Z 08005KT 23/17 A3013 RMK A01 T02330167  RH  067%=      5-min Rain = 0
KAHS 170440Z 09005KT 23/17 A3013 RMK A01 T02320167  RH  067%=      5-min Rain = 0
KAHS 170441Z 08005KT 23/17 A3013 RMK A01 T02320167  RH  067%=      5-min Rain = 0
KAHS 170442Z 08005KT 23/17 A3013 RMK A01 T02320168  RH  067%=      5-min Rain = 0
KAHS 170443Z 09005KT 23/17 A3013 RMK A01 T02320168  RH  067%=      5-min Rain = 0
KAHS 170444Z 09005KT 23/17 A3013 RMK A01 T02310167  RH  067%=      5-min Rain = 0
KAHS 170445Z 08005KT 23/17 A3013 RMK A01 T02310167  RH  067%=      5-min Rain = 0
KAHS 170446Z 09004KT 23/17 A3013 RMK A01 T02310167  RH  067%=      5-min Rain = 0
KAHS 170447Z 09006KT 23/17 A3013 RMK A01 T02310167  RH  067%=      5-min Rain = 0
KAHS 170448Z 08005KT 23/17 A3013 RMK A01 T02310167  RH  067%=      5-min Rain = 0
KAHS 170449Z 08005KT 23/17 A3013 RMK A01 T02310168  RH  067%=      5-min Rain = 0
KAHS 170450Z 09004KT 23/17 A3013 RMK A01 T02310168  RH  067%=      5-min Rain = 0
KAHS 170451Z 08004KT 23/17 A3013 RMK A01 T02310168  RH  067%=      5-min Rain = 0
KAHS 170452Z 08005KT 23/17 A3013 RMK A01 T02310167  RH  067%=      5-min Rain = 0
KAHS 170453Z 08005KT 23/17 A3013 RMK A01 T02310168  RH  068%=      5-min Rain = 0
KAHS 170454Z 08005KT 23/17 A3013 RMK A01 T02310168  RH  068%=      5-min Rain = 0
KAHS 170455Z 08004KT 23/17 A3014 RMK A01 T02310167  RH  068%=      5-min Rain = 0
KAHS 170456Z 08004KT 23/17 A3014 RMK A01 T02310168  RH  068%=      5-min Rain = 0
KAHS 170457Z 09006KT 23/17 A3014 RMK A01 T02310168  RH  068%=      5-min Rain = 0
KAHS 170458Z 08006KT 23/17 A3014 RMK A01 T02310168  RH  068%=      5-min Rain = 0
KAHS 170459Z 09006KT 23/17 A3014 RMK A01 T02310168  RH  068%=      5-min Rain = 0

Page generated in 0.2673 seconds.